Wetterdaten: Sonntag, 11.11.2018
Datum Zeit Temp. Aussen Temp. o. S. +5cm Feuchte Auss Luftdruck Regen Sonnenschein Regendauer Solar Windben Empfang
11.11.2018 00:00 11,8 C 11,1 C 10,0 C 95 % 1001,9 hPa 0,0 l/m 0 min 0 min 0 W/m 12,9 km/h (3 Bft) 97,87 %
11.11.2018 00:02 11,8 C 11,1 C 10,0 C 95 % 1001,9 hPa 0,0 l/m 0 min 0 min 0 W/m 12,9 km/h (3 Bft) 94,59 %
11.11.2018 00:04 11,9 C 11,1 C 10,0 C 95 % 1001,9 hPa 0,0 l/m 0 min 0 min 0 W/m 12,9 km/h (3 Bft) 97,87 %
11.11.2018 00:07 11,9 C 11,1 C 10,6 C 95 % 1001,7 hPa 0,0 l/m 0 min 0 min 0 W/m 19,3 km/h (3 Bft) 97,56 %
11.11.2018 00:08 11,9 C 11,1 C 10,6 C 95 % 1001,9 hPa 0,0 l/m 0 min 0 min 0 W/m 9,7 km/h (2 Bft) 90,91 %
11.11.2018 00:10 11,9 C 11,1 C 10,6 C 95 % 1001,8 hPa 0,0 l/m 0 min 0 min 0 W/m 16,1 km/h (3 Bft) 97,87 %
11.11.2018 00:12 11,9 C 11,1 C 10,6 C 95 % 1001,9 hPa 0,0 l/m 0 min 0 min 0 W/m 16,1 km/h (3 Bft) 97,87 %
11.11.2018 00:14 11,9 C 11,1 C 10,0 C 95 % 1001,8 hPa 0,0 l/m 0 min 0 min 0 W/m 12,9 km/h (3 Bft) 97,87 %
11.11.2018 00:16 11,9 C 11,1 C 10,0 C 95 % 1001,6 hPa 0,0 l/m 0 min 0 min 0 W/m 12,9 km/h (3 Bft) 95,74 %
11.11.2018 00:18 11,9 C 11,1 C 10,0 C 95 % 1001,7 hPa 0,0 l/m 0 min 0 min 0 W/m 12,9 km/h (3 Bft) 97,83 %
11.11.2018 00:20 11,9 C 10,6 C 10,0 C 95 % 1001,8 hPa 0,0 l/m 0 min 0 min 0 W/m 16,1 km/h (3 Bft) 97,87 %
11.11.2018 00:22 11,8 C 10,6 C 10,0 C 95 % 1001,8 hPa 0,0 l/m 0 min 0 min 0 W/m 16,1 km/h (3 Bft) 95,74 %
11.11.2018 00:24 11,8 C 10,6 C 10,0 C 95 % 1001,8 hPa 0,0 l/m 0 min 0 min 0 W/m 19,3 km/h (3 Bft) 97,87 %
11.11.2018 00:26 11,8 C 10,6 C 10,0 C 95 % 1001,5 hPa 0,0 l/m 0 min 0 min 0 W/m 12,9 km/h (3 Bft) 97,87 %
11.11.2018 00:28 11,8 C 10,6 C 10,0 C 95 % 1001,6 hPa 0,0 l/m 0 min 0 min 0 W/m 19,3 km/h (3 Bft) 97,87 %
11.11.2018 00:30 11,8 C 10,6 C 10,0 C 95 % 1001,7 hPa 0,0 l/m 0 min 0 min 0 W/m 16,1 km/h (3 Bft) 97,83 %
11.11.2018 00:32 11,8 C 10,6 C 10,0 C 95 % 1001,8 hPa 0,0 l/m 0 min 0 min 0 W/m 12,9 km/h (3 Bft) 97,87 %
11.11.2018 00:34 11,8 C 10,6 C 10,0 C 95 % 1001,7 hPa 0,0 l/m 0 min 0 min 0 W/m 12,9 km/h (3 Bft) 97,87 %
11.11.2018 00:36 11,8 C 10,6 C 10,0 C 95 % 1001,8 hPa 0,0 l/m 0 min 0 min 0 W/m 12,9 km/h (3 Bft) 96,61 %
11.11.2018 00:38 11,8 C 10,6 C 10,0 C 95 % 1001,8 hPa 0,0 l/m 0 min 0 min 0 W/m 9,7 km/h (2 Bft) 100,00 %
11.11.2018 00:40 11,7 C 10,6 C 10,0 C 95 % 1001,9 hPa 0,0 l/m 0 min 0 min 0 W/m 16,1 km/h (3 Bft) 95,74 %
11.11.2018 00:42 11,7 C 10,6 C 10,0 C 95 % 1001,8 hPa 0,0 l/m 0 min 0 min 0 W/m 9,7 km/h (2 Bft) 93,48 %
11.11.2018 00:44 11,7 C 11,1 C 10,0 C 94 % 1001,8 hPa 0,0 l/m 0 min 0 min 0 W/m 16,1 km/h (3 Bft) 95,74 %
11.11.2018 00:46 11,7 C 11,1 C 10,0 C 94 % 1001,8 hPa 0,0 l/m 0 min 0 min 0 W/m 12,9 km/h (3 Bft) 95,74 %
11.11.2018 00:48 11,7 C 11,1 C 10,0 C 94 % 1001,7 hPa 0,0 l/m 0 min 0 min 0 W/m 12,9 km/h (3 Bft) 95,74 %
11.11.2018 00:50 11,7 C 11,1 C 10,0 C 94 % 1001,7 hPa 0,0 l/m 0 min 0 min 0 W/m 12,9 km/h (3 Bft) 97,87 %
11.11.2018 00:52 11,7 C 11,1 C 10,0 C 94 % 1001,7 hPa 0,0 l/m 0 min 0 min 0 W/m 9,7 km/h (2 Bft) 95,74 %
11.11.2018 00:54 11,6 C 10,6 C 10,0 C 94 % 1001,7 hPa 0,0 l/m 0 min 0 min 0 W/m 12,9 km/h (3 Bft) 95,74 %
11.11.2018 00:56 11,6 C 10,6 C 10,0 C 94 % 1001,7 hPa 0,0 l/m 0 min 0 min 0 W/m 9,7 km/h (2 Bft) 97,83 %
11.11.2018 00:58 11,6 C 10,6 C 10,0 C 94 % 1001,8 hPa 0,0 l/m 0 min 0 min 0 W/m 12,9 km/h (3 Bft) 95,74 %
11.11.2018 01:00 11,6 C 10,6 C 10,0 C 94 % 1001,6 hPa 0,0 l/m 0 min 0 min 0 W/m 12,9 km/h (3 Bft) 95,74 %
11.11.2018 01:02 11,6 C 10,6 C 10,0 C 94 % 1001,8 hPa 0,0 l/m 0 min 0 min 0 W/m 9,7 km/h (2 Bft) 95,74 %
11.11.2018 01:04 11,6 C 10,6 C 10,0 C 94 % 1001,9 hPa 0,0 l/m 0 min 0 min 0 W/m 9,7 km/h (2 Bft) 93,62 %
11.11.2018 01:06 11,5 C 10,6 C 10,0 C 94 % 1001,9 hPa 0,0 l/m 0 min 0 min 0 W/m 9,7 km/h (2 Bft) 96,55 %
11.11.2018 01:08 11,5 C 10,6 C 10,0 C 94 % 1001,9 hPa 0,0 l/m 0 min 0 min 0 W/m 9,7 km/h (2 Bft) 100,00 %
11.11.2018 01:10 11,5 C 10,6 C 10,0 C 94 % 1001,9 hPa 0,0 l/m 0 min 0 min 0 W/m 12,9 km/h (3 Bft) 93,62 %
11.11.2018 01:12 11,5 C 11,1 C 10,0 C 94 % 1001,9 hPa 0,0 l/m 0 min 0 min 0 W/m 19,3 km/h (3 Bft) 93,62 %
11.11.2018 01:14 11,4 C 11,1 C 10,0 C 94 % 1001,9 hPa 0,0 l/m 0 min 0 min 0 W/m 16,1 km/h (3 Bft) 91,49 %
11.11.2018 01:16 11,4 C 11,1 C 10,0 C 94 % 1001,9 hPa 0,0 l/m 0 min 0 min 0 W/m 9,7 km/h (2 Bft) 95,74 %
11.11.2018 01:18 11,4 C 11,1 C 10,0 C 94 % 1001,9 hPa 0,0 l/m 0 min 0 min 0 W/m 19,3 km/h (3 Bft) 95,65 %
11.11.2018 01:20 11,4 C 11,1 C 10,0 C 94 % 1001,9 hPa 0,0 l/m 0 min 0 min 0 W/m 12,9 km/h (3 Bft) 95,74 %
11.11.2018 01:22 11,4 C 11,1 C 10,0 C 94 % 1001,8 hPa 0,0 l/m 0 min 0 min 0 W/m 16,1 km/h (3 Bft) 95,74 %
11.11.2018 01:24 11,4 C 11,1 C 10,0 C 94 % 1001,8 hPa 0,0 l/m 0 min 0 min 0 W/m 16,1 km/h (3 Bft) 95,74 %
11.11.2018 01:26 11,4 C 11,1 C 10,0 C 94 % 1001,8 hPa 0,0 l/m 0 min 0 min 0 W/m 12,9 km/h (3 Bft) 93,62 %
11.11.2018 01:28 11,4 C 11,1 C 10,0 C 94 % 1001,8 hPa 0,0 l/m 0 min 0 min 0 W/m 22,5 km/h (4 Bft) 95,74 %
11.11.2018 01:30 11,4 C 11,1 C 10,0 C 94 % 1001,8 hPa 0,0 l/m 0 min 0 min 0 W/m 12,9 km/h (3 Bft) 95,65 %
11.11.2018 01:32 11,4 C 11,1 C 10,0 C 94 % 1001,8 hPa 0,0 l/m 0 min 0 min 0 W/m 9,7 km/h (2 Bft) 95,74 %
11.11.2018 01:34 11,4 C 10,6 C 10,0 C 94 % 1001,8 hPa 0,0 l/m 0 min 0 min 0 W/m 6,4 km/h (2 Bft) 95,74 %
11.11.2018 01:36 11,4 C 11,1 C 10,0 C 94 % 1001,8 hPa 0,0 l/m 0 min 0 min 0 W/m 9,7 km/h (2 Bft) 94,92 %
11.11.2018 01:38 11,4 C 11,1 C 10,0 C 94 % 1001,8 hPa 0,0 l/m 0 min 0 min 0 W/m 12,9 km/h (3 Bft) 97,14 %
11.11.2018 01:40 11,4 C 11,1 C 10,0 C 94 % 1001,8 hPa 0,0 l/m 0 min 0 min 0 W/m 12,9 km/h (3 Bft) 95,74 %
11.11.2018 01:42 11,4 C 11,1 C 10,0 C 94 % 1001,9 hPa 0,0 l/m 0 min 0 min 0 W/m 12,9 km/h (3 Bft) 95,65 %
11.11.2018 01:44 11,4 C 11,1 C 10,0 C 94 % 1001,8 hPa 0,0 l/m 0 min 0 min 0 W/m 9,7 km/h (2 Bft) 97,87 %
11.11.2018 01:46 11,4 C 11,1 C 10,0 C 94 % 1001,8 hPa 0,0 l/m 0 min 0 min 0 W/m 9,7 km/h (2 Bft) 97,87 %
11.11.2018 01:48 11,4 C 11,1 C 10,0 C 94 % 1001,9 hPa 0,0 l/m 0 min 0 min 0 W/m 6,4 km/h (2 Bft) 97,87 %
11.11.2018 01:50 11,4 C 11,1 C 10,0 C 94 % 1001,9 hPa 0,0 l/m 0 min 0 min 0 W/m 9,7 km/h (2 Bft) 97,87 %
11.11.2018 01:52 11,4 C 11,1 C 10,0 C 94 % 1002,0 hPa 0,0 l/m 0 min 0 min 0 W/m 16,1 km/h (3 Bft) 93,62 %
11.11.2018 01:54 11,4 C 11,1 C 10,0 C 94 % 1001,9 hPa 0,0 l/m 0 min 0 min 0 W/m 12,9 km/h (3 Bft) 97,83 %
11.11.2018 01:56 11,4 C 11,1 C 10,0 C 94 % 1001,9 hPa 0,0 l/m 0 min 0 min 0 W/m 12,9 km/h (3 Bft) 97,87 %
11.11.2018 01:58 11,4 C 11,1 C 10,0 C 94 % 1002,0 hPa 0,0 l/m 0 min 0 min 0 W/m 19,3 km/h (3 Bft) 100,00 %
11.11.2018 02:00 11,4 C 11,1 C 10,6 C 95 % 1002,0 hPa 0,0 l/m 0 min 0 min 0 W/m 22,5 km/h (4 Bft) 97,87 %
11.11.2018 02:02 11,4 C 11,1 C 10,6 C 95 % 1002,0 hPa 0,0 l/m 0 min 0 min 0 W/m 12,9 km/h (3 Bft) 100,00 %
11.11.2018 02:04 11,4 C 11,1 C 10,6 C 95 % 1002,0 hPa 0,0 l/m 0 min 0 min 0 W/m 19,3 km/h (3 Bft) 100,00 %
11.11.2018 02:06 11,4 C 11,1 C 10,6 C 95 % 1002,0 hPa 0,0 l/m 0 min 0 min 0 W/m 16,1 km/h (3 Bft) 100,00 %
11.11.2018 02:08 11,4 C 11,1 C 10,6 C 95 % 1002,0 hPa 0,0 l/m 0 min 0 min 0 W/m 12,9 km/h (3 Bft) 94,29 %
11.11.2018 02:10 11,4 C 11,1 C 10,6 C 95 % 1002,1 hPa 0,0 l/m 0 min 0 min 0 W/m 16,1 km/h (3 Bft) 100,00 %
11.11.2018 02:12 11,5 C 11,1 C 10,6 C 95 % 1002,1 hPa 0,0 l/m 0 min 0 min 0 W/m 12,9 km/h (3 Bft) 100,00 %
11.11.2018 02:14 11,5 C 11,1 C 10,6 C 95 % 1002,1 hPa 0,0 l/m 0 min 0 min 0 W/m 12,9 km/h (3 Bft) 100,00 %
11.11.2018 02:16 11,5 C 11,1 C 10,6 C 95 % 1002,1 hPa 0,0 l/m 0 min 0 min 0 W/m 12,9 km/h (3 Bft) 100,00 %
11.11.2018 02:18 11,5 C 11,1 C 10,6 C 94 % 1002,2 hPa 0,0 l/m 0 min 0 min 0 W/m 12,9 km/h (3 Bft) 100,00 %
11.11.2018 02:20 11,5 C 11,1 C 10,6 C 94 % 1002,3 hPa 0,0 l/m 0 min 0 min 0 W/m 16,1 km/h (3 Bft) 100,00 %
11.11.2018 02:22 11,5 C 11,1 C 10,6 C 94 % 1002,2 hPa 0,0 l/m 0 min 0 min 0 W/m 9,7 km/h (2 Bft) 100,00 %
11.11.2018 02:24 11,5 C 11,1 C 10,6 C 94 % 1002,1 hPa 0,0 l/m 0 min 0 min 0 W/m 9,7 km/h (2 Bft) 100,00 %
11.11.2018 02:26 11,5 C 11,1 C 10,6 C 94 % 1002,1 hPa 0,0 l/m 0 min 0 min 0 W/m 16,1 km/h (3 Bft) 100,00 %
11.11.2018 02:28 11,5 C 11,1 C 10,6 C 94 % 1002,1 hPa 0,0 l/m 0 min 0 min 0 W/m 16,1 km/h (3 Bft) 100,00 %
11.11.2018 02:30 11,5 C 11,1 C 10,6 C 94 % 1002,0 hPa 0,0 l/m 0 min 0 min 0 W/m 12,9 km/h (3 Bft) 100,00 %
11.11.2018 02:32 11,6 C 11,1 C 10,6 C 94 % 1002,0 hPa 0,0 l/m 0 min 0 min 0 W/m 16,1 km/h (3 Bft) 100,00 %
11.11.2018 02:34 11,5 C 11,1 C 10,6 C 94 % 1002,0 hPa 0,0 l/m 0 min 0 min 0 W/m 16,1 km/h (3 Bft) 100,00 %
11.11.2018 02:36 11,5 C 11,1 C 10,6 C 94 % 1002,0 hPa 0,0 l/m 0 min 0 min 0 W/m 12,9 km/h (3 Bft) 100,00 %
11.11.2018 02:38 11,6 C 11,1 C 10,6 C 94 % 1002,0 hPa 0,0 l/m 0 min 0 min 0 W/m 16,1 km/h (3 Bft) 100,00 %
11.11.2018 02:40 11,5 C 11,1 C 10,6 C 94 % 1002,0 hPa 0,0 l/m 0 min 0 min 0 W/m 16,1 km/h (3 Bft) 100,00 %
11.11.2018 02:42 11,6 C 11,1 C 10,6 C 94 % 1002,0 hPa 0,0 l/m 0 min 0 min 0 W/m 22,5 km/h (4 Bft) 100,00 %
11.11.2018 02:44 11,6 C 11,1 C 10,6 C 94 % 1001,9 hPa 0,0 l/m 0 min 0 min 0 W/m 22,5 km/h (4 Bft) 97,87 %
11.11.2018 02:46 11,6 C 11,1 C 10,6 C 94 % 1001,9 hPa 0,0 l/m 0 min 0 min 0 W/m 12,9 km/h (3 Bft) 97,87 %
11.11.2018 02:48 11,6 C 11,1 C 10,6 C 94 % 1001,8 hPa 0,0 l/m 0 min 0 min 0 W/m 16,1 km/h (3 Bft) 97,87 %
11.11.2018 02:50 11,6 C 11,1 C 10,6 C 94 % 1001,7 hPa 0,0 l/m 0 min 0 min 0 W/m 9,7 km/h (2 Bft) 97,87 %
11.11.2018 02:52 11,6 C 11,1 C 10,6 C 94 % 1001,8 hPa 0,0 l/m 0 min 0 min 0 W/m 12,9 km/h (3 Bft) 95,65 %
11.11.2018 02:54 11,6 C 11,1 C 10,6 C 94 % 1001,8 hPa 0,0 l/m 0 min 0 min 0 W/m 16,1 km/h (3 Bft) 97,87 %
11.11.2018 02:56 11,6 C 11,1 C 10,6 C 94 % 1001,7 hPa 0,0 l/m 0 min 0 min 0 W/m 22,5 km/h (4 Bft) 97,87 %
11.11.2018 02:58 11,6 C 11,1 C 10,6 C 94 % 1001,8 hPa 0,0 l/m 0 min 0 min 0 W/m 19,3 km/h (3 Bft) 95,74 %
11.11.2018 03:00 11,6 C 11,1 C 10,6 C 94 % 1001,9 hPa 0,0 l/m 0 min 0 min 0 W/m 19,3 km/h (3 Bft) 97,87 %
11.11.2018 03:02 11,6 C 11,1 C 10,6 C 94 % 1001,8 hPa 0,0 l/m 0 min 0 min 0 W/m 16,1 km/h (3 Bft) 96,00 %
11.11.2018 03:04 11,6 C 11,1 C 10,6 C 93 % 1001,9 hPa 0,0 l/m 0 min 0 min 0 W/m 19,3 km/h (3 Bft) 97,83 %
11.11.2018 03:06 11,6 C 11,1 C 10,6 C 93 % 1001,8 hPa 0,0 l/m 0 min 0 min 0 W/m 22,5 km/h (4 Bft) 98,31 %
11.11.2018 03:08 11,6 C 11,1 C 10,6 C 93 % 1001,9 hPa 0,0 l/m 0 min 0 min 0 W/m 22,5 km/h (4 Bft) 97,14 %
11.11.2018 03:10 11,6 C 11,1 C 10,0 C 93 % 1001,9 hPa 0,0 l/m 0 min 0 min 0 W/m 19,3 km/h (3 Bft) 97,87 %
11.11.2018 03:12 11,6 C 11,1 C 10,6 C 93 % 1001,9 hPa 0,0 l/m 0 min 0 min 0 W/m 25,7 km/h (4 Bft) 97,87 %
11.11.2018 03:14 11,6 C 11,1 C 10,0 C 93 % 1001,9 hPa 0,0 l/m 0 min 0 min 0 W/m 12,9 km/h (3 Bft) 97,83 %
11.11.2018 03:16 11,6 C 11,1 C 10,0 C 93 % 1002,0 hPa 0,0 l/m 0 min 0 min 0 W/m 19,3 km/h (3 Bft) 97,87 %
11.11.2018 03:18 11,6 C 11,1 C 10,0 C 93 % 1001,9 hPa 0,0 l/m 0 min 0 min 0 W/m 12,9 km/h (3 Bft) 93,62 %
11.11.2018 03:20 11,6 C 11,1 C 10,0 C 93 % 1002,0 hPa 0,0 l/m 0 min 0 min 0 W/m 16,1 km/h (3 Bft) 97,87 %
11.11.2018 03:22 11,6 C 11,1 C 10,0 C 93 % 1002,0 hPa 0,0 l/m 0 min 0 min 0 W/m 12,9 km/h (3 Bft) 97,87 %
11.11.2018 03:24 11,5 C 11,1 C 10,0 C 93 % 1001,9 hPa 0,0 l/m 0 min 0 min 0 W/m 19,3 km/h (3 Bft) 97,87 %
11.11.2018 03:26 11,5 C 11,1 C 10,0 C 93 % 1002,0 hPa 0,0 l/m 0 min 0 min 0 W/m 19,3 km/h (3 Bft) 100,00 %
11.11.2018 03:28 11,5 C 11,1 C 10,0 C 93 % 1002,0 hPa 0,0 l/m 0 min 0 min 0 W/m 22,5 km/h (4 Bft) 100,00 %
11.11.2018 03:30 11,5 C 11,1 C 10,0 C 93 % 1002,0 hPa 0,0 l/m 0 min 0 min 0 W/m 16,1 km/h (3 Bft) 97,87 %
11.11.2018 03:32 11,5 C 11,1 C 10,0 C 93 % 1002,0 hPa 0,0 l/m 0 min 0 min 0 W/m 16,1 km/h (3 Bft) 100,00 %
11.11.2018 03:34 11,5 C 11,1 C 10,0 C 93 % 1001,9 hPa 0,0 l/m 0 min 0 min 0 W/m 16,1 km/h (3 Bft) 100,00 %
11.11.2018 03:36 11,5 C 10,6 C 10,0 C 93 % 1001,9 hPa 0,0 l/m 0 min 0 min 0 W/m 16,1 km/h (3 Bft) 100,00 %
11.11.2018 03:38 11,4 C 11,1 C 10,0 C 93 % 1001,9 hPa 0,0 l/m 0 min 0 min 0 W/m 16,1 km/h (3 Bft) 97,14 %
11.11.2018 03:40 11,4 C 11,1 C 10,0 C 93 % 1001,9 hPa 0,0 l/m 0 min 0 min 0 W/m 12,9 km/h (3 Bft) 100,00 %
11.11.2018 03:42 11,4 C 11,1 C 10,0 C 93 % 1001,9 hPa 0,0 l/m 0 min 0 min 0 W/m 12,9 km/h (3 Bft) 100,00 %
11.11.2018 03:44 11,4 C 11,1 C 10,0 C 93 % 1002,0 hPa 0,0 l/m 0 min 0 min 0 W/m 16,1 km/h (3 Bft) 100,00 %
11.11.2018 03:46 11,4 C 10,6 C 10,0 C 92 % 1001,9 hPa 0,0 l/m 0 min 0 min 0 W/m 16,1 km/h (3 Bft) 97,87 %
11.11.2018 03:48 11,4 C 10,6 C 10,0 C 92 % 1001,9 hPa 0,0 l/m 0 min 0 min 0 W/m 22,5 km/h (4 Bft) 97,87 %
11.11.2018 03:50 11,4 C 10,6 C 10,0 C 92 % 1001,9 hPa 0,0 l/m 0 min 0 min 0 W/m 16,1 km/h (3 Bft) 97,83 %
11.11.2018 03:52 11,4 C 10,6 C 10,0 C 92 % 1001,9 hPa 0,0 l/m 0 min 0 min 0 W/m 22,5 km/h (4 Bft) 100,00 %
11.11.2018 03:54 11,4 C 10,6 C 10,0 C 92 % 1001,8 hPa 0,0 l/m 0 min 0 min 0 W/m 16,1 km/h (3 Bft) 100,00 %
11.11.2018 03:56 11,4 C 10,6 C 10,0 C 92 % 1001,9 hPa 0,0 l/m 0 min 0 min 0 W/m 9,7 km/h (2 Bft) 95,74 %
11.11.2018 03:58 11,4 C 10,6 C 10,0 C 92 % 1001,9 hPa 0,0 l/m 0 min 0 min 0 W/m 16,1 km/h (3 Bft) 95,74 %
11.11.2018 04:00 11,3 C 10,6 C 10,0 C 92 % 1001,8 hPa 0,0 l/m 0 min 0 min 0 W/m 16,1 km/h (3 Bft) 100,00 %
11.11.2018 04:02 11,3 C 10,6 C 10,0 C 92 % 1001,9 hPa 0,0 l/m 0 min 0 min 0 W/m 19,3 km/h (3 Bft) 100,00 %
11.11.2018 04:04 11,3 C 10,6 C 10,0 C 92 % 1001,9 hPa 0,0 l/m 0 min 0 min 0 W/m 12,9 km/h (3 Bft) 97,87 %
11.11.2018 04:06 11,3 C 10,6 C 10,0 C 92 % 1001,9 hPa 0,0 l/m 0 min 0 min 0 W/m 9,7 km/h (2 Bft) 94,92 %
11.11.2018 04:08 11,3 C 10,6 C 10,0 C 92 % 1001,8 hPa 0,0 l/m 0 min 0 min 0 W/m 9,7 km/h (2 Bft) 94,29 %
11.11.2018 04:10 11,3 C 10,6 C 10,0 C 92 % 1001,7 hPa 0,0 l/m 0 min 0 min 0 W/m 16,1 km/h (3 Bft) 95,74 %
11.11.2018 04:12 11,3 C 10,6 C 10,0 C 92 % 1001,7 hPa 0,0 l/m 0 min 0 min 0 W/m 12,9 km/h (3 Bft) 95,65 %
11.11.2018 04:14 11,3 C 10,6 C 10,0 C 92 % 1001,8 hPa 0,0 l/m 0 min 0 min 0 W/m 9,7 km/h (2 Bft) 95,74 %
11.11.2018 04:16 11,3 C 10,6 C 10,0 C 92 % 1001,8 hPa 0,0 l/m 0 min 0 min 0 W/m 16,1 km/h (3 Bft) 95,74 %
11.11.2018 04:18 11,3 C 10,6 C 10,0 C 92 % 1001,7 hPa 0,0 l/m 0 min 0 min 0 W/m 12,9 km/h (3 Bft) 95,74 %
11.11.2018 04:20 11,3 C 11,1 C 10,0 C 92 % 1001,7 hPa 0,0 l/m 0 min 0 min 0 W/m 25,7 km/h (4 Bft) 95,74 %
11.11.2018 04:22 11,3 C 10,6 C 10,0 C 92 % 1001,7 hPa 0,0 l/m 0 min 0 min 0 W/m 16,1 km/h (3 Bft) 95,74 %
11.11.2018 04:24 11,3 C 10,6 C 10,0 C 92 % 1001,8 hPa 0,0 l/m 0 min 0 min 0 W/m 19,3 km/h (3 Bft) 95,65 %
11.11.2018 04:26 11,3 C 11,1 C 10,0 C 92 % 1001,8 hPa 0,0 l/m 0 min 0 min 0 W/m 22,5 km/h (4 Bft) 95,74 %
11.11.2018 04:28 11,3 C 11,1 C 10,0 C 91 % 1001,9 hPa 0,0 l/m 0 min 0 min 0 W/m 22,5 km/h (4 Bft) 95,74 %
11.11.2018 04:30 11,3 C 11,1 C 10,0 C 92 % 1001,9 hPa 0,0 l/m 0 min 0 min 0 W/m 12,9 km/h (3 Bft) 93,62 %
11.11.2018 04:32 11,3 C 10,6 C 10,0 C 92 % 1001,9 hPa 0,0 l/m 0 min 0 min 0 W/m 12,9 km/h (3 Bft) 95,83 %
11.11.2018 04:34 11,3 C 11,1 C 10,0 C 92 % 1001,8 hPa 0,0 l/m 0 min 0 min 0 W/m 25,7 km/h (4 Bft) 95,74 %
11.11.2018 04:36 11,3 C 11,1 C 10,0 C 92 % 1001,9 hPa 0,0 l/m 0 min 0 min 0 W/m 16,1 km/h (3 Bft) 94,83 %
11.11.2018 04:38 11,3 C 11,1 C 10,0 C 91 % 1001,9 hPa 0,0 l/m 0 min 0 min 0 W/m 19,3 km/h (3 Bft) 97,14 %
11.11.2018 04:40 11,3 C 11,1 C 10,0 C 91 % 1001,9 hPa 0,0 l/m 0 min 0 min 0 W/m 16,1 km/h (3 Bft) 92,73 %
11.11.2018 04:42 11,3 C 11,1 C 10,0 C 91 % 1001,8 hPa 0,0 l/m 0 min 0 min 0 W/m 19,3 km/h (3 Bft) 95,74 %
11.11.2018 04:44 11,3 C 11,1 C 10,0 C 91 % 1001,9 hPa 0,0 l/m 0 min 0 min 0 W/m 9,7 km/h (2 Bft) 95,74 %
11.11.2018 04:46 11,3 C 11,1 C 10,0 C 91 % 1001,8 hPa 0,0 l/m 0 min 0 min 0 W/m 9,7 km/h (2 Bft) 95,74 %
11.11.2018 04:48 11,3 C 11,1 C 10,0 C 91 % 1001,8 hPa 0,0 l/m 0 min 0 min 0 W/m 9,7 km/h (2 Bft) 95,65 %
11.11.2018 04:50 11,4 C 11,1 C 10,0 C 91 % 1001,9 hPa 0,0 l/m 0 min 0 min 0 W/m 12,9 km/h (3 Bft) 95,74 %
11.11.2018 04:52 11,4 C 11,1 C 10,0 C 91 % 1001,9 hPa 0,0 l/m 0 min 0 min 0 W/m 16,1 km/h (3 Bft) 97,87 %
11.11.2018 04:54 11,4 C 11,1 C 10,0 C 91 % 1001,9 hPa 0,0 l/m 0 min 0 min 0 W/m 19,3 km/h (3 Bft) 95,74 %
11.11.2018 04:56 11,4 C 11,1 C 10,0 C 91 % 1001,9 hPa 0,0 l/m 0 min 0 min 0 W/m 9,7 km/h (2 Bft) 97,87 %
11.11.2018 04:58 11,4 C 11,1 C 10,0 C 91 % 1001,9 hPa 0,0 l/m 0 min 0 min 0 W/m 12,9 km/h (3 Bft) 97,87 %
11.11.2018 05:00 11,4 C 11,1 C 10,0 C 91 % 1001,9 hPa 0,0 l/m 0 min 0 min 0 W/m 16,1 km/h (3 Bft) 95,65 %
11.11.2018 05:02 11,4 C 11,1 C 10,0 C 91 % 1001,8 hPa 0,0 l/m 0 min 0 min 0 W/m 16,1 km/h (3 Bft) 97,87 %
11.11.2018 05:04 11,4 C 11,1 C 10,0 C 91 % 1001,8 hPa 0,0 l/m 0 min 0 min 0 W/m 22,5 km/h (4 Bft) 97,87 %
11.11.2018 05:06 11,4 C 11,1 C 10,0 C 91 % 1001,9 hPa 0,0 l/m 0 min 0 min 0 W/m 16,1 km/h (3 Bft) 97,87 %
11.11.2018 05:08 11,4 C 11,1 C 10,0 C 91 % 1001,9 hPa 0,0 l/m 0 min 0 min 0 W/m 16,1 km/h (3 Bft) 100,00 %
11.11.2018 05:10 11,4 C 11,1 C 10,6 C 91 % 1001,8 hPa 0,0 l/m 0 min 0 min 0 W/m 19,3 km/h (3 Bft) 100,00 %
11.11.2018 05:12 11,4 C 11,1 C 10,6 C 91 % 1001,8 hPa 0,0 l/m 0 min 0 min 0 W/m 16,1 km/h (3 Bft) 97,87 %
11.11.2018 05:14 11,4 C 11,1 C 10,6 C 91 % 1001,7 hPa 0,0 l/m 0 min 0 min 0 W/m 19,3 km/h (3 Bft) 100,00 %
11.11.2018 05:19 11,5 C 11,1 C 10,6 C 91 % 1001,8 hPa 0,0 l/m 0 min 0 min 0 W/m 22,5 km/h (4 Bft) 98,46 %
11.11.2018 05:20 11,5 C 11,1 C 10,6 C 91 % 1001,8 hPa 0,0 l/m 0 min 0 min 0 W/m 16,1 km/h (3 Bft) 100,00 %
11.11.2018 05:22 11,5 C 11,1 C 10,6 C 91 % 1001,9 hPa 0,0 l/m 0 min 0 min 0 W/m 19,3 km/h (3 Bft) 100,00 %
11.11.2018 05:24 11,5 C 11,1 C 10,6 C 91 % 1002,0 hPa 0,0 l/m 0 min 0 min 0 W/m 16,1 km/h (3 Bft) 93,62 %
11.11.2018 05:26 11,6 C 11,1 C 10,6 C 91 % 1001,9 hPa 0,0 l/m 0 min 0 min 0 W/m 16,1 km/h (3 Bft) 97,87 %
11.11.2018 05:28 11,6 C 11,1 C 10,6 C 91 % 1001,9 hPa 0,0 l/m 0 min 0 min 0 W/m 25,7 km/h (4 Bft) 97,87 %
11.11.2018 05:30 11,6 C 11,1 C 10,6 C 91 % 1002,0 hPa 0,0 l/m 0 min 0 min 0 W/m 19,3 km/h (3 Bft) 95,74 %
11.11.2018 05:32 11,6 C 11,1 C 10,6 C 91 % 1002,0 hPa 0,0 l/m 0 min 0 min 0 W/m 12,9 km/h (3 Bft) 95,65 %
11.11.2018 05:34 11,6 C 11,1 C 10,6 C 90 % 1002,0 hPa 0,0 l/m 0 min 0 min 0 W/m 12,9 km/h (3 Bft) 95,74 %
11.11.2018 05:36 11,6 C 11,1 C 10,6 C 90 % 1002,0 hPa 0,0 l/m 0 min 0 min 0 W/m 9,7 km/h (2 Bft) 95,74 %
11.11.2018 05:38 11,6 C 11,1 C 10,6 C 90 % 1002,1 hPa 0,0 l/m 0 min 0 min 0 W/m 16,1 km/h (3 Bft) 97,87 %
11.11.2018 05:40 11,6 C 11,1 C 10,6 C 90 % 1002,1 hPa 0,0 l/m 0 min 0 min 0 W/m 12,9 km/h (3 Bft) 97,87 %
11.11.2018 05:42 11,6 C 11,1 C 10,6 C 90 % 1002,1 hPa 0,0 l/m 0 min 0 min 0 W/m 16,1 km/h (3 Bft) 97,87 %
11.11.2018 05:44 11,6 C 11,1 C 10,6 C 90 % 1002,1 hPa 0,0 l/m 0 min 0 min 0 W/m 12,9 km/h (3 Bft) 95,65 %
11.11.2018 05:46 11,6 C 11,1 C 10,6 C 90 % 1002,1 hPa 0,0 l/m 0 min 0 min 0 W/m 12,9 km/h (3 Bft) 95,74 %
11.11.2018 05:48 11,6 C 11,1 C 10,6 C 90 % 1002,0 hPa 0,0 l/m 0 min 0 min 0 W/m 16,1 km/h (3 Bft) 97,87 %
11.11.2018 05:50 11,6 C 11,1 C 10,0 C 90 % 1002,0 hPa 0,0 l/m 0 min 0 min 0 W/m 16,1 km/h (3 Bft) 95,74 %
11.11.2018 05:52 11,6 C 11,1 C 10,0 C 90 % 1002,0 hPa 0,0 l/m 0 min 0 min 0 W/m 19,3 km/h (3 Bft) 97,87 %
11.11.2018 05:54 11,6 C 11,1 C 10,6 C 90 % 1002,0 hPa 0,0 l/m 0 min 0 min 0 W/m 16,1 km/h (3 Bft) 97,87 %
11.11.2018 05:56 11,6 C 11,1 C 10,0 C 90 % 1002,0 hPa 0,0 l/m 0 min 0 min 0 W/m 22,5 km/h (4 Bft) 97,83 %
11.11.2018 05:58 11,6 C 11,1 C 10,0 C 90 % 1002,1 hPa 0,0 l/m 0 min 0 min 0 W/m 12,9 km/h (3 Bft) 93,62 %
11.11.2018 06:00 11,6 C 11,1 C 10,6 C 90 % 1001,9 hPa 0,0 l/m 0 min 0 min 0 W/m 25,7 km/h (4 Bft) 97,87 %
11.11.2018 06:02 11,6 C 11,1 C 10,6 C 90 % 1002,0 hPa 0,0 l/m 0 min 0 min 0 W/m 12,9 km/h (3 Bft) 95,74 %
11.11.2018 06:04 11,6 C 11,1 C 10,6 C 90 % 1001,9 hPa 0,0 l/m 0 min 0 min 0 W/m 16,1 km/h (3 Bft) 97,87 %
11.11.2018 06:08 11,6 C 11,1 C 10,6 C 90 % 1002,0 hPa 0,0 l/m 0 min 0 min 0 W/m 16,1 km/h (3 Bft) 97,85 %
11.11.2018 06:10 11,6 C 11,1 C 10,6 C 90 % 1002,0 hPa 0,0 l/m 0 min 0 min 0 W/m 16,1 km/h (3 Bft) 97,87 %
11.11.2018 06:12 11,6 C 11,1 C 10,6 C 90 % 1002,0 hPa 0,0 l/m 0 min 0 min 0 W/m 22,5 km/h (4 Bft) 100,00 %
11.11.2018 06:14 11,6 C 11,1 C 10,6 C 90 % 1002,0 hPa 0,0 l/m 0 min 0 min 0 W/m 16,1 km/h (3 Bft) 100,00 %
11.11.2018 06:16 11,6 C 11,1 C 10,6 C 90 % 1001,9 hPa 0,0 l/m 0 min 2 min 0 W/m 22,5 km/h (4 Bft) 100,00 %
11.11.2018 06:18 11,6 C 11,1 C 10,6 C 89 % 1001,9 hPa 0,0 l/m 0 min 0 min 0 W/m 19,3 km/h (3 Bft) 100,00 %
11.11.2018 06:20 11,6 C 11,1 C 10,0 C 89 % 1002,0 hPa 0,0 l/m 0 min 2 min 0 W/m 19,3 km/h (3 Bft) 97,83 %
11.11.2018 06:22 11,6 C 10,6 C 10,0 C 89 % 1002,1 hPa 0,0 l/m 0 min 0 min 0 W/m 16,1 km/h (3 Bft) 100,00 %
11.11.2018 06:24 11,6 C 11,1 C 10,6 C 89 % 1002,0 hPa 0,0 l/m 0 min 0 min 0 W/m 22,5 km/h (4 Bft) 97,87 %
11.11.2018 06:26 11,6 C 11,1 C 10,0 C 89 % 1002,0 hPa 0,0 l/m 0 min 2 min 0 W/m 16,1 km/h (3 Bft) 100,00 %
11.11.2018 06:28 11,6 C 11,1 C 10,0 C 89 % 1002,0 hPa 0,0 l/m 0 min 0 min 0 W/m 25,7 km/h (4 Bft) 100,00 %
11.11.2018 06:30 11,6 C 11,1 C 10,0 C 89 % 1002,1 hPa 0,0 l/m 0 min 2 min 0 W/m 12,9 km/h (3 Bft) 100,00 %
11.11.2018 06:32 11,6 C 11,1 C 10,0 C 89 % 1002,0 hPa 0,0 l/m 0 min 2 min 0 W/m 19,3 km/h (3 Bft) 100,00 %
11.11.2018 06:34 11,6 C 10,6 C 10,0 C 89 % 1002,0 hPa 0,0 l/m 0 min 2 min 0 W/m 16,1 km/h (3 Bft) 100,00 %
11.11.2018 06:36 11,6 C 10,6 C 10,0 C 89 % 1002,0 hPa 0,0 l/m 0 min 2 min 0 W/m 19,3 km/h (3 Bft) 97,87 %
11.11.2018 06:38 11,6 C 10,0 C 9,4 C 89 % 1002,0 hPa 0,0 l/m 0 min 2 min 0 W/m 22,5 km/h (4 Bft) 100,00 %
11.11.2018 06:40 11,6 C 10,0 C 9,4 C 89 % 1002,0 hPa 0,0 l/m 0 min 2 min 0 W/m 22,5 km/h (4 Bft) 100,00 %
11.11.2018 06:42 11,6 C 10,0 C 9,4 C 89 % 1002,0 hPa 0,0 l/m 0 min 2 min 0 W/m 16,1 km/h (3 Bft) 97,83 %
11.11.2018 06:44 11,6 C 10,0 C 9,4 C 89 % 1002,1 hPa 0,0 l/m 0 min 2 min 0 W/m 19,3 km/h (3 Bft) 97,87 %
11.11.2018 06:46 11,6 C 10,0 C 9,4 C 90 % 1002,1 hPa 0,2 l/m 0 min 2 min 0 W/m 16,1 km/h (3 Bft) 100,00 %
11.11.2018 06:48 11,6 C 10,0 C 9,4 C 90 % 1002,2 hPa 0,0 l/m 0 min 2 min 0 W/m 22,5 km/h (4 Bft) 100,00 %
11.11.2018 06:50 11,6 C 9,4 C 9,4 C 90 % 1002,0 hPa 0,0 l/m 0 min 2 min 0 W/m 22,5 km/h (4 Bft) 97,87 %
11.11.2018 06:52 11,6 C 9,4 C 9,4 C 90 % 1002,1 hPa 0,2 l/m 0 min 2 min 0 W/m 12,9 km/h (3 Bft) 97,87 %
11.11.2018 06:54 11,6 C 9,4 C 9,4 C 90 % 1002,1 hPa 0,0 l/m 0 min 2 min 0 W/m 16,1 km/h (3 Bft) 97,83 %
11.11.2018 06:56 11,5 C 9,4 C 9,4 C 90 % 1002,2 hPa 0,0 l/m 0 min 2 min 0 W/m 12,9 km/h (3 Bft) 100,00 %
11.11.2018 06:58 11,5 C 9,4 C 9,4 C 90 % 1002,1 hPa 0,0 l/m 0 min 2 min 0 W/m 19,3 km/h (3 Bft) 97,87 %
11.11.2018 07:00 11,5 C 9,4 C 8,9 C 91 % 1002,1 hPa 0,0 l/m 0 min 2 min 0 W/m 19,3 km/h (3 Bft) 97,87 %
11.11.2018 07:02 11,4 C 9,4 C 8,9 C 90 % 1002,1 hPa 0,0 l/m 0 min 2 min 0 W/m 16,1 km/h (3 Bft) 97,87 %
11.11.2018 07:04 11,4 C 9,4 C 8,9 C 91 % 1002,2 hPa 0,0 l/m 0 min 2 min 0 W/m 16,1 km/h (3 Bft) 97,87 %
11.11.2018 07:06 11,4 C 9,4 C 8,9 C 91 % 1002,2 hPa 0,0 l/m 0 min 2 min 0 W/m 12,9 km/h (3 Bft) 97,83 %
11.11.2018 07:08 11,4 C 9,4 C 8,9 C 91 % 1002,2 hPa 0,0 l/m 0 min 2 min 0 W/m 16,1 km/h (3 Bft) 95,74 %
11.11.2018 07:10 11,3 C 9,4 C 8,9 C 91 % 1002,2 hPa 0,0 l/m 0 min 2 min 0 W/m 16,1 km/h (3 Bft) 97,87 %
11.11.2018 07:12 11,3 C 9,4 C 8,9 C 91 % 1002,3 hPa 0,2 l/m 0 min 2 min 0 W/m 12,9 km/h (3 Bft) 97,87 %
11.11.2018 07:14 11,3 C 9,4 C 8,9 C 91 % 1002,2 hPa 0,0 l/m 0 min 2 min 0 W/m 12,9 km/h (3 Bft) 97,87 %
11.11.2018 07:16 11,3 C 9,4 C 8,9 C 91 % 1002,3 hPa 0,0 l/m 0 min 2 min 0 W/m 9,7 km/h (2 Bft) 97,87 %
11.11.2018 07:19 11,2 C 9,4 C 8,9 C 92 % 1002,3 hPa 0,0 l/m 0 min 3 min 0 W/m 12,9 km/h (3 Bft) 98,57 %
11.11.2018 07:20 11,2 C 9,4 C 8,9 C 91 % 1002,3 hPa 0,0 l/m 0 min 1 min 0 W/m 9,7 km/h (2 Bft) 95,65 %
11.11.2018 07:22 11,2 C 9,4 C 8,9 C 91 % 1002,3 hPa 0,0 l/m 0 min 2 min 0 W/m 19,3 km/h (3 Bft) 97,87 %
11.11.2018 07:24 11,2 C 9,4 C 8,9 C 92 % 1002,3 hPa 0,0 l/m 0 min 0 min 0 W/m 16,1 km/h (3 Bft) 97,87 %
11.11.2018 07:26 11,2 C 9,4 C 8,9 C 92 % 1002,2 hPa 0,0 l/m 0 min 0 min 0 W/m 16,1 km/h (3 Bft) 97,87 %
11.11.2018 07:28 11,1 C 9,4 C 8,9 C 92 % 1002,3 hPa 0,0 l/m 0 min 0 min 0 W/m 19,3 km/h (3 Bft) 97,87 %
11.11.2018 07:30 11,1 C 9,4 C 8,9 C 92 % 1002,3 hPa 0,0 l/m 0 min 0 min 0 W/m 16,1 km/h (3 Bft) 97,83 %
11.11.2018 07:32 11,1 C 9,4 C 8,9 C 92 % 1002,3 hPa 0,0 l/m 0 min 0 min 0 W/m 9,7 km/h (2 Bft) 97,87 %
11.11.2018 07:34 11,1 C 9,4 C 8,9 C 92 % 1002,3 hPa 0,0 l/m 0 min 0 min 0 W/m 16,1 km/h (3 Bft) 97,87 %
11.11.2018 07:36 11,1 C 9,4 C 8,9 C 92 % 1002,2 hPa 0,0 l/m 0 min 0 min 0 W/m 16,1 km/h (3 Bft) 95,74 %
11.11.2018 07:38 11,0 C 9,4 C 8,9 C 92 % 1002,3 hPa 0,0 l/m 0 min 0 min 0 W/m 12,9 km/h (3 Bft) 93,62 %
11.11.2018 07:40 11,0 C 9,4 C 8,9 C 92 % 1002,3 hPa 0,0 l/m 0 min 0 min 0 W/m 16,1 km/h (3 Bft) 97,87 %
11.11.2018 07:42 10,9 C 9,4 C 8,9 C 92 % 1002,4 hPa 0,0 l/m 0 min 0 min 0 W/m 12,9 km/h (3 Bft) 97,83 %
11.11.2018 07:44 10,9 C 9,4 C 8,9 C 92 % 1002,3 hPa 0,0 l/m 0 min 0 min 0 W/m 9,7 km/h (2 Bft) 97,87 %
11.11.2018 07:46 10,9 C 9,4 C 8,9 C 93 % 1002,4 hPa 0,0 l/m 0 min 0 min 0 W/m 22,5 km/h (4 Bft) 97,87 %
11.11.2018 07:48 10,9 C 9,4 C 8,9 C 93 % 1002,4 hPa 0,0 l/m 0 min 0 min 0 W/m 9,7 km/h (2 Bft) 97,87 %
11.11.2018 07:50 10,9 C 9,4 C 8,9 C 93 % 1002,4 hPa 0,0 l/m 0 min 0 min 0 W/m 9,7 km/h (2 Bft) 95,74 %
11.11.2018 07:52 10,9 C 9,4 C 8,9 C 93 % 1002,5 hPa 0,0 l/m 0 min 0 min 0 W/m 9,7 km/h (2 Bft) 97,87 %
11.11.2018 07:54 10,9 C 9,4 C 8,9 C 93 % 1002,5 hPa 0,0 l/m 0 min 0 min 0 W/m 16,1 km/h (3 Bft) 93,48 %
11.11.2018 07:56 10,9 C 9,4 C 8,9 C 93 % 1002,6 hPa 0,0 l/m 0 min 0 min 0 W/m 16,1 km/h (3 Bft) 97,87 %
11.11.2018 08:00 10,8 C 9,4 C 8,9 C 93 % 1002,6 hPa 0,0 l/m 0 min 0 min 0 W/m 9,7 km/h (2 Bft) 98,25 %
11.11.2018 08:02 10,8 C 9,4 C 8,9 C 93 % 1002,7 hPa 0,0 l/m 0 min 0 min 0 W/m 12,9 km/h (3 Bft) 95,74 %
11.11.2018 08:04 10,8 C 9,4 C 8,9 C 93 % 1002,7 hPa 0,0 l/m 0 min 0 min 4 W/m 12,9 km/h (3 Bft) 95,74 %
11.11.2018 08:06 10,8 C 9,4 C 8,9 C 93 % 1002,8 hPa 0,0 l/m 0 min 0 min 5 W/m 16,1 km/h (3 Bft) 96,61 %
11.11.2018 08:08 10,8 C 9,4 C 8,9 C 93 % 1002,7 hPa 0,0 l/m 0 min 0 min 6 W/m 16,1 km/h (3 Bft) 97,14 %
11.11.2018 08:10 10,8 C 9,4 C 8,9 C 93 % 1002,8 hPa 0,0 l/m 0 min 0 min 5 W/m 12,9 km/h (3 Bft) 95,74 %
11.11.2018 08:12 10,8 C 9,4 C 8,9 C 93 % 1002,9 hPa 0,0 l/m 0 min 0 min 5 W/m 16,1 km/h (3 Bft) 93,48 %
11.11.2018 08:14 10,8 C 9,4 C 8,9 C 93 % 1002,8 hPa 0,0 l/m 0 min 0 min 6 W/m 16,1 km/h (3 Bft) 95,74 %
11.11.2018 08:16 10,8 C 10,0 C 9,4 C 93 % 1002,8 hPa 0,0 l/m 0 min 0 min 9 W/m 16,1 km/h (3 Bft) 95,74 %
11.11.2018 08:18 10,8 C 10,0 C 9,4 C 93 % 1002,9 hPa 0,0 l/m 0 min 0 min 12 W/m 16,1 km/h (3 Bft) 93,62 %
11.11.2018 08:20 10,8 C 10,0 C 9,4 C 93 % 1002,9 hPa 0,0 l/m 0 min 0 min 14 W/m 16,1 km/h (3 Bft) 95,74 %
11.11.2018 08:22 10,8 C 10,0 C 9,4 C 93 % 1003,0 hPa 0,0 l/m 0 min 0 min 14 W/m 12,9 km/h (3 Bft) 95,74 %
11.11.2018 08:24 10,8 C 10,0 C 9,4 C 93 % 1003,0 hPa 0,0 l/m 0 min 0 min 14 W/m 9,7 km/h (2 Bft) 93,48 %
11.11.2018 08:26 10,8 C 10,0 C 9,4 C 93 % 1003,0 hPa 0,0 l/m 0 min 0 min 15 W/m 16,1 km/h (3 Bft) 95,74 %
11.11.2018 08:28 10,8 C 10,0 C 9,4 C 93 % 1003,0 hPa 0,0 l/m 0 min 0 min 19 W/m 16,1 km/h (3 Bft) 95,74 %
11.11.2018 08:30 10,8 C 10,0 C 9,4 C 93 % 1003,0 hPa 0,0 l/m 0 min 0 min 24 W/m 12,9 km/h (3 Bft) 93,62 %
11.11.2018 08:32 10,8 C 10,0 C 9,4 C 93 % 1003,1 hPa 0,0 l/m 0 min 0 min 26 W/m 12,9 km/h (3 Bft) 95,74 %
11.11.2018 08:34 10,8 C 10,0 C 9,4 C 93 % 1003,1 hPa 0,0 l/m 0 min 0 min 28 W/m 12,9 km/h (3 Bft) 95,74 %
11.11.2018 08:36 10,9 C 10,0 C 9,4 C 93 % 1003,2 hPa 0,0 l/m 0 min 0 min 29 W/m 16,1 km/h (3 Bft) 89,66 %
11.11.2018 08:38 10,9 C 10,0 C 9,4 C 93 % 1003,2 hPa 0,0 l/m 0 min 0 min 27 W/m 9,7 km/h (2 Bft) 97,14 %
11.11.2018 08:40 10,9 C 10,0 C 9,4 C 93 % 1003,1 hPa 0,0 l/m 0 min 0 min 23 W/m 22,5 km/h (4 Bft) 80,85 %
11.11.2018 08:42 10,9 C 10,0 C 9,4 C 93 % 1003,3 hPa 0,0 l/m 0 min 0 min 24 W/m 16,1 km/h (3 Bft) 93,62 %
11.11.2018 08:44 10,9 C 10,0 C 9,4 C 93 % 1003,3 hPa 0,0 l/m 0 min 0 min 25 W/m 12,9 km/h (3 Bft) 95,74 %
11.11.2018 08:46 10,9 C 10,6 C 9,4 C 93 % 1003,3 hPa 0,0 l/m 0 min 0 min 26 W/m 12,9 km/h (3 Bft) 95,74 %
11.11.2018 08:48 11,0 C 10,6 C 9,4 C 93 % 1003,3 hPa 0,0 l/m 0 min 0 min 24 W/m 12,9 km/h (3 Bft) 89,13 %
11.11.2018 08:50 11,0 C 10,6 C 9,4 C 93 % 1003,4 hPa 0,0 l/m 0 min 0 min 22 W/m 12,9 km/h (3 Bft) 95,74 %
11.11.2018 08:52 11,0 C 10,6 C 9,4 C 93 % 1003,4 hPa 0,0 l/m 0 min 0 min 24 W/m 19,3 km/h (3 Bft) 93,62 %
11.11.2018 08:54 11,1 C 10,6 C 9,4 C 93 % 1003,4 hPa 0,0 l/m 0 min 0 min 32 W/m 9,7 km/h (2 Bft) 95,74 %
11.11.2018 08:56 11,1 C 10,6 C 9,4 C 93 % 1003,4 hPa 0,0 l/m 0 min 0 min 36 W/m 16,1 km/h (3 Bft) 97,87 %
11.11.2018 08:58 11,1 C 10,6 C 9,4 C 92 % 1003,4 hPa 0,0 l/m 0 min 0 min 45 W/m 16,1 km/h (3 Bft) 95,65 %
11.11.2018 09:00 11,1 C 10,6 C 9,4 C 92 % 1003,4 hPa 0,0 l/m 0 min 0 min 53 W/m 12,9 km/h (3 Bft) 97,87 %
11.11.2018 09:02 11,2 C 10,6 C 9,4 C 92 % 1003,4 hPa 0,0 l/m 0 min 0 min 54 W/m 16,1 km/h (3 Bft) 97,87 %
11.11.2018 09:04 11,2 C 10,6 C 10,0 C 92 % 1003,4 hPa 0,0 l/m 0 min 0 min 50 W/m 12,9 km/h (3 Bft) 97,87 %
11.11.2018 09:06 11,2 C 10,6 C 10,0 C 92 % 1003,5 hPa 0,0 l/m 0 min 0 min 49 W/m 12,9 km/h (3 Bft) 100,00 %
11.11.2018 09:08 11,3 C 10,6 C 10,0 C 92 % 1003,5 hPa 0,0 l/m 0 min 0 min 51 W/m 29,0 km/h (5 Bft) 100,00 %
11.11.2018 09:10 11,3 C 10,6 C 10,0 C 91 % 1003,5 hPa 0,2 l/m 0 min 0 min 47 W/m 22,5 km/h (4 Bft) 97,83 %
11.11.2018 09:12 11,3 C 10,6 C 10,0 C 91 % 1003,5 hPa 0,0 l/m 0 min 0 min 33 W/m 9,7 km/h (2 Bft) 100,00 %
11.11.2018 09:14 11,4 C 10,6 C 10,0 C 91 % 1003,5 hPa 0,0 l/m 0 min 0 min 29 W/m 19,3 km/h (3 Bft) 100,00 %
11.11.2018 09:16 11,4 C 10,6 C 10,0 C 91 % 1003,5 hPa 0,0 l/m 0 min 0 min 33 W/m 12,9 km/h (3 Bft) 100,00 %
11.11.2018 09:18 11,4 C 10,6 C 10,0 C 90 % 1003,5 hPa 0,0 l/m 0 min 0 min 32 W/m 16,1 km/h (3 Bft) 97,87 %
11.11.2018 09:20 11,5 C 10,6 C 10,0 C 90 % 1003,5 hPa 0,0 l/m 0 min 0 min 32 W/m 12,9 km/h (3 Bft) 97,87 %
11.11.2018 09:22 11,6 C 10,6 C 10,0 C 90 % 1003,6 hPa 0,0 l/m 0 min 0 min 27 W/m 22,5 km/h (4 Bft) 100,00 %
11.11.2018 09:24 11,6 C 10,6 C 10,0 C 90 % 1003,5 hPa 0,0 l/m 0 min 0 min 23 W/m 12,9 km/h (3 Bft) 100,00 %
11.11.2018 09:26 11,6 C 10,6 C 10,0 C 90 % 1003,6 hPa 0,0 l/m 0 min 0 min 23 W/m 12,9 km/h (3 Bft) 100,00 %
11.11.2018 09:28 11,6 C 10,6 C 10,0 C 89 % 1003,6 hPa 0,0 l/m 0 min 0 min 23 W/m 9,7 km/h (2 Bft) 97,87 %
11.11.2018 09:30 11,7 C 10,6 C 10,0 C 89 % 1003,6 hPa 0,0 l/m 0 min 0 min 22 W/m 12,9 km/h (3 Bft) 97,87 %
11.11.2018 09:32 11,7 C 10,6 C 10,0 C 89 % 1003,7 hPa 0,0 l/m 0 min 0 min 19 W/m 25,7 km/h (4 Bft) 97,87 %
11.11.2018 09:34 11,7 C 10,6 C 10,0 C 89 % 1003,6 hPa 0,0 l/m 0 min 0 min 15 W/m 19,3 km/h (3 Bft) 97,83 %
11.11.2018 09:36 11,7 C 10,6 C 10,0 C 89 % 1003,7 hPa 0,0 l/m 0 min 0 min 18 W/m 12,9 km/h (3 Bft) 98,31 %
11.11.2018 09:38 11,7 C 10,6 C 10,0 C 89 % 1003,7 hPa 0,0 l/m 0 min 0 min 22 W/m 12,9 km/h (3 Bft) 97,14 %
11.11.2018 09:40 11,8 C 10,6 C 10,0 C 89 % 1003,7 hPa 0,0 l/m 0 min 0 min 40 W/m 12,9 km/h (3 Bft) 97,87 %
11.11.2018 09:42 11,8 C 11,1 C 10,0 C 89 % 1003,7 hPa 0,0 l/m 0 min 0 min 57 W/m 9,7 km/h (2 Bft) 93,62 %
11.11.2018 09:44 11,8 C 11,1 C 10,0 C 88 % 1003,8 hPa 0,0 l/m 0 min 0 min 77 W/m 9,7 km/h (2 Bft) 95,74 %
11.11.2018 09:46 11,8 C 11,1 C 10,6 C 88 % 1003,7 hPa 0,0 l/m 0 min 0 min 102 W/m 16,1 km/h (3 Bft) 95,65 %
11.11.2018 09:48 11,9 C 11,1 C 10,6 C 88 % 1003,7 hPa 0,0 l/m 0 min 0 min 79 W/m 12,9 km/h (3 Bft) 97,87 %
11.11.2018 09:50 11,9 C 11,1 C 10,6 C 88 % 1003,9 hPa 0,0 l/m 0 min 0 min 65 W/m 12,9 km/h (3 Bft) 95,74 %
11.11.2018 09:52 11,9 C 11,7 C 10,6 C 88 % 1003,9 hPa 0,0 l/m 0 min 0 min 88 W/m 12,9 km/h (3 Bft) 97,87 %
11.11.2018 09:54 11,9 C 11,7 C 10,6 C 88 % 1003,9 hPa 0,0 l/m 2 min 0 min 144 W/m 12,9 km/h (3 Bft) 95,74 %
11.11.2018 09:56 12,0 C 12,8 C 10,6 C 88 % 1003,9 hPa 0,0 l/m 0 min 0 min 116 W/m 16,1 km/h (3 Bft) 97,87 %
11.11.2018 09:58 12,1 C 12,8 C 11,1 C 88 % 1003,9 hPa 0,0 l/m 2 min 0 min 286 W/m 19,3 km/h (3 Bft) 97,83 %
11.11.2018 10:00 12,1 C 13,3 C 11,1 C 88 % 1003,9 hPa 0,0 l/m 0 min 0 min 111 W/m 12,9 km/h (3 Bft) 95,74 %
11.11.2018 10:02 12,2 C 13,3 C 11,1 C 88 % 1003,9 hPa 0,0 l/m 0 min 0 min 96 W/m 12,9 km/h (3 Bft) 97,87 %
11.11.2018 10:04 12,2 C 12,8 C 11,1 C 88 % 1003,9 hPa 0,0 l/m 0 min 0 min 120 W/m 22,5 km/h (4 Bft) 97,87 %
11.11.2018 10:06 12,3 C 13,3 C 11,1 C 88 % 1003,9 hPa 0,0 l/m 2 min 0 min 168 W/m 12,9 km/h (3 Bft) 98,28 %
11.11.2018 10:08 12,4 C 12,8 C 11,1 C 88 % 1003,9 hPa 0,0 l/m 2 min 0 min 175 W/m 19,3 km/h (3 Bft) 97,22 %
11.11.2018 10:10 12,4 C 12,8 C 11,7 C 87 % 1003,9 hPa 0,0 l/m 0 min 0 min 111 W/m 16,1 km/h (3 Bft) 97,83 %
11.11.2018 10:12 12,5 C 13,3 C 11,7 C 87 % 1003,9 hPa 0,0 l/m 0 min 0 min 111 W/m 12,9 km/h (3 Bft) 97,87 %
11.11.2018 10:14 12,6 C 14,4 C 11,7 C 87 % 1003,9 hPa 0,0 l/m 2 min 0 min 228 W/m 16,1 km/h (3 Bft) 97,87 %
11.11.2018 10:16 12,7 C 15,6 C 12,2 C 87 % 1004,0 hPa 0,0 l/m 2 min 0 min 295 W/m 12,9 km/h (3 Bft) 97,87 %
11.11.2018 10:18 12,8 C 16,7 C 12,2 C 87 % 1004,0 hPa 0,0 l/m 2 min 0 min 335 W/m 12,9 km/h (3 Bft) 97,87 %
11.11.2018 10:20 12,9 C 16,1 C 12,2 C 87 % 1004,0 hPa 0,0 l/m 2 min 0 min 361 W/m 25,7 km/h (4 Bft) 97,87 %
11.11.2018 10:22 13,0 C 15,6 C 12,2 C 87 % 1003,9 hPa 0,0 l/m 2 min 0 min 297 W/m 22,5 km/h (4 Bft) 97,83 %
11.11.2018 10:24 13,2 C 15,0 C 12,2 C 86 % 1004,0 hPa 0,0 l/m 2 min 0 min 383 W/m 19,3 km/h (3 Bft) 97,87 %
11.11.2018 10:26 13,3 C 14,4 C 12,8 C 85 % 1004,0 hPa 0,0 l/m 2 min 0 min 279 W/m 32,2 km/h (5 Bft) 95,74 %
11.11.2018 10:28 13,4 C 13,9 C 12,8 C 85 % 1004,0 hPa 0,0 l/m 2 min 0 min 170 W/m 22,5 km/h (4 Bft) 97,87 %
11.11.2018 10:30 13,4 C 13,3 C 12,8 C 84 % 1003,9 hPa 0,0 l/m 0 min 0 min 141 W/m 19,3 km/h (3 Bft) 100,00 %
11.11.2018 10:32 13,6 C 13,9 C 12,8 C 83 % 1004,0 hPa 0,0 l/m 0 min 0 min 133 W/m 19,3 km/h (3 Bft) 100,00 %
11.11.2018 10:34 13,6 C 13,9 C 12,2 C 83 % 1003,9 hPa 0,0 l/m 0 min 0 min 127 W/m 19,3 km/h (3 Bft) 100,00 %
11.11.2018 10:36 13,6 C 13,9 C 12,2 C 82 % 1003,9 hPa 0,0 l/m 0 min 0 min 113 W/m 22,5 km/h (4 Bft) 100,00 %
11.11.2018 10:38 13,6 C 13,9 C 12,2 C 82 % 1003,9 hPa 0,0 l/m 0 min 0 min 128 W/m 29,0 km/h (5 Bft) 100,00 %
11.11.2018 10:40 13,7 C 13,9 C 12,2 C 81 % 1004,0 hPa 0,0 l/m 0 min 0 min 137 W/m 25,7 km/h (4 Bft) 97,87 %
11.11.2018 10:42 13,7 C 13,9 C 12,8 C 81 % 1003,9 hPa 0,0 l/m 0 min 0 min 154 W/m 35,4 km/h (5 Bft) 100,00 %
11.11.2018 10:44 13,7 C 13,9 C 12,8 C 81 % 1003,9 hPa 0,0 l/m 0 min 0 min 120 W/m 25,7 km/h (4 Bft) 100,00 %
11.11.2018 10:46 13,7 C 13,9 C 12,8 C 81 % 1004,0 hPa 0,0 l/m 0 min 0 min 105 W/m 22,5 km/h (4 Bft) 95,74 %
11.11.2018 10:48 13,7 C 13,9 C 12,8 C 80 % 1004,0 hPa 0,0 l/m 0 min 0 min 92 W/m 25,7 km/h (4 Bft) 95,74 %
11.11.2018 10:50 13,7 C 13,9 C 12,8 C 80 % 1004,1 hPa 0,0 l/m 0 min 0 min 112 W/m 22,5 km/h (4 Bft) 97,87 %
11.11.2018 10:52 13,7 C 13,9 C 12,8 C 80 % 1004,2 hPa 0,0 l/m 0 min 0 min 122 W/m 29,0 km/h (5 Bft) 97,87 %
11.11.2018 10:54 13,8 C 14,4 C 12,8 C 80 % 1004,2 hPa 0,0 l/m 2 min 0 min 168 W/m 22,5 km/h (4 Bft) 95,74 %
11.11.2018 10:56 13,8 C 14,4 C 12,8 C 80 % 1004,1 hPa 0,0 l/m 0 min 0 min 139 W/m 32,2 km/h (5 Bft) 95,74 %
11.11.2018 10:58 13,8 C 14,4 C 12,8 C 80 % 1004,1 hPa 0,0 l/m 2 min 0 min 166 W/m 19,3 km/h (3 Bft) 95,65 %
11.11.2018 11:00 13,9 C 16,1 C 12,8 C 80 % 1004,1 hPa 0,0 l/m 2 min 0 min 168 W/m 16,1 km/h (3 Bft) 93,62 %
11.11.2018 11:02 13,9 C 17,2 C 12,8 C 80 % 1004,0 hPa 0,0 l/m 2 min 0 min 243 W/m 22,5 km/h (4 Bft) 95,74 %
11.11.2018 11:04 14,0 C 17,2 C 12,8 C 80 % 1004,0 hPa 0,0 l/m 2 min 0 min 309 W/m 22,5 km/h (4 Bft) 95,74 %
11.11.2018 11:06 14,2 C 17,2 C 12,8 C 79 % 1004,1 hPa 0,0 l/m 2 min 0 min 386 W/m 32,2 km/h (5 Bft) 93,10 %
11.11.2018 11:08 14,2 C 18,9 C 12,8 C 79 % 1004,1 hPa 0,0 l/m 2 min 0 min 402 W/m 19,3 km/h (3 Bft) 94,29 %
11.11.2018 11:10 14,2 C 18,3 C 12,8 C 79 % 1004,1 hPa 0,0 l/m 2 min 0 min 413 W/m 25,7 km/h (4 Bft) 95,74 %
11.11.2018 11:12 14,3 C 18,9 C 13,3 C 78 % 1004,1 hPa 0,0 l/m 2 min 0 min 428 W/m 22,5 km/h (4 Bft) 95,74 %
11.11.2018 11:14 14,4 C 18,9 C 13,3 C 79 % 1004,0 hPa 0,0 l/m 2 min 0 min 468 W/m 16,1 km/h (3 Bft) 95,74 %
11.11.2018 11:16 14,6 C 19,4 C 13,9 C 78 % 1004,1 hPa 0,0 l/m 2 min 0 min 352 W/m 22,5 km/h (4 Bft) 93,62 %
11.11.2018 11:18 14,7 C 18,9 C 13,9 C 78 % 1004,1 hPa 0,0 l/m 2 min 0 min 354 W/m 29,0 km/h (5 Bft) 95,74 %
11.11.2018 11:20 14,9 C 17,8 C 13,9 C 77 % 1004,1 hPa 0,0 l/m 2 min 0 min 355 W/m 32,2 km/h (5 Bft) 95,65 %
11.11.2018 11:22 14,9 C 16,7 C 13,9 C 76 % 1004,2 hPa 0,0 l/m 2 min 0 min 333 W/m 29,0 km/h (5 Bft) 91,49 %
11.11.2018 11:24 15,0 C 16,1 C 13,9 C 76 % 1004,3 hPa 0,0 l/m 2 min 0 min 211 W/m 29,0 km/h (5 Bft) 93,62 %
11.11.2018 11:26 15,1 C 15,6 C 13,3 C 76 % 1004,2 hPa 0,0 l/m 2 min 0 min 183 W/m 19,3 km/h (3 Bft) 93,62 %
11.11.2018 11:28 15,1 C 15,0 C 13,3 C 75 % 1004,2 hPa 0,0 l/m 0 min 0 min 161 W/m 19,3 km/h (3 Bft) 97,87 %
11.11.2018 11:30 15,0 C 14,4 C 13,3 C 75 % 1004,2 hPa 0,0 l/m 0 min 0 min 118 W/m 25,7 km/h (4 Bft) 97,87 %
11.11.2018 11:32 15,0 C 14,4 C 13,3 C 75 % 1004,2 hPa 0,0 l/m 0 min 0 min 92 W/m 19,3 km/h (3 Bft) 97,83 %
11.11.2018 11:34 14,9 C 14,4 C 13,3 C 75 % 1004,2 hPa 0,0 l/m 0 min 0 min 114 W/m 25,7 km/h (4 Bft) 95,74 %
11.11.2018 11:36 14,9 C 14,4 C 13,3 C 76 % 1004,3 hPa 0,0 l/m 0 min 0 min 127 W/m 22,5 km/h (4 Bft) 96,61 %
11.11.2018 11:38 14,8 C 14,4 C 13,3 C 75 % 1004,3 hPa 0,0 l/m 0 min 0 min 132 W/m 25,7 km/h (4 Bft) 97,14 %
11.11.2018 11:40 14,8 C 14,4 C 13,3 C 76 % 1004,5 hPa 0,0 l/m 2 min 0 min 180 W/m 22,5 km/h (4 Bft) 97,87 %
11.11.2018 11:42 14,8 C 15,0 C 13,3 C 76 % 1004,5 hPa 0,0 l/m 2 min 0 min 200 W/m 25,7 km/h (4 Bft) 93,48 %
11.11.2018 11:44 14,7 C 15,0 C 13,9 C 76 % 1004,5 hPa 0,0 l/m 2 min 0 min 238 W/m 29,0 km/h (5 Bft) 97,87 %
11.11.2018 11:46 14,7 C 15,0 C 13,9 C 76 % 1004,5 hPa 0,0 l/m 2 min 0 min 203 W/m 19,3 km/h (3 Bft) 100,00 %
11.11.2018 11:48 14,7 C 15,0 C 13,9 C 76 % 1004,6 hPa 0,0 l/m 2 min 0 min 197 W/m 29,0 km/h (5 Bft) 100,00 %
11.11.2018 11:50 14,7 C 15,0 C 13,9 C 76 % 1004,5 hPa 0,0 l/m 0 min 0 min 170 W/m 22,5 km/h (4 Bft) 100,00 %
11.11.2018 11:52 14,7 C 15,0 C 13,9 C 76 % 1004,6 hPa 0,0 l/m 0 min 0 min 157 W/m 29,0 km/h (5 Bft) 100,00 %
11.11.2018 11:54 14,7 C 15,0 C 13,9 C 76 % 1004,6 hPa 0,0 l/m 2 min 0 min 192 W/m 32,2 km/h (5 Bft) 97,83 %
11.11.2018 11:56 14,7 C 15,0 C 13,9 C 76 % 1004,7 hPa 0,0 l/m 2 min 0 min 212 W/m 19,3 km/h (3 Bft) 100,00 %
11.11.2018 11:58 14,7 C 15,0 C 13,9 C 76 % 1004,7 hPa 0,0 l/m 2 min 0 min 202 W/m 22,5 km/h (4 Bft) 100,00 %
11.11.2018 12:00 14,8 C 15,6 C 13,9 C 76 % 1004,7 hPa 0,0 l/m 0 min 0 min 177 W/m 25,7 km/h (4 Bft) 97,87 %
11.11.2018 12:02 14,8 C 15,6 C 13,9 C 76 % 1004,7 hPa 0,0 l/m 0 min 0 min 180 W/m 29,0 km/h (5 Bft) 97,87 %
11.11.2018 12:04 14,8 C 15,6 C 13,9 C 76 % 1004,6 hPa 0,0 l/m 2 min 0 min 191 W/m 22,5 km/h (4 Bft) 97,87 %
11.11.2018 12:08 14,8 C 15,0 C 13,9 C 76 % 1004,7 hPa 0,0 l/m 0 min 0 min 172 W/m 29,0 km/h (5 Bft) 100,00 %
11.11.2018 12:10 14,8 C 14,4 C 13,9 C 75 % 1004,8 hPa 0,0 l/m 0 min 0 min 145 W/m 25,7 km/h (4 Bft) 97,87 %
11.11.2018 12:12 14,8 C 14,4 C 13,9 C 75 % 1004,7 hPa 0,0 l/m 0 min 0 min 136 W/m 22,5 km/h (4 Bft) 97,87 %
11.11.2018 12:14 14,8 C 14,4 C 13,9 C 75 % 1004,7 hPa 0,0 l/m 0 min 0 min 137 W/m 22,5 km/h (4 Bft) 100,00 %
11.11.2018 12:16 14,8 C 15,0 C 13,9 C 76 % 1004,8 hPa 0,0 l/m 0 min 0 min 161 W/m 25,7 km/h (4 Bft) 97,87 %
11.11.2018 12:18 14,8 C 15,6 C 13,9 C 76 % 1004,7 hPa 0,0 l/m 2 min 0 min 228 W/m 16,1 km/h (3 Bft) 100,00 %
11.11.2018 12:20 14,8 C 15,6 C 13,9 C 76 % 1004,8 hPa 0,0 l/m 2 min 0 min 212 W/m 29,0 km/h (5 Bft) 100,00 %
11.11.2018 12:22 14,9 C 15,0 C 13,9 C 76 % 1004,8 hPa 0,0 l/m 2 min 0 min 203 W/m 38,6 km/h (5 Bft) 100,00 %
11.11.2018 12:24 14,9 C 15,0 C 13,9 C 76 % 1004,8 hPa 0,0 l/m 0 min 0 min 175 W/m 22,5 km/h (4 Bft) 97,87 %
11.11.2018 12:26 14,9 C 15,0 C 13,9 C 76 % 1004,9 hPa 0,0 l/m 0 min 0 min 142 W/m 16,1 km/h (3 Bft) 97,87 %
11.11.2018 12:28 14,9 C 15,0 C 13,9 C 76 % 1005,0 hPa 0,0 l/m 0 min 0 min 121 W/m 25,7 km/h (4 Bft) 97,87 %
11.11.2018 12:30 14,9 C 14,4 C 13,9 C 75 % 1005,0 hPa 0,0 l/m 0 min 0 min 105 W/m 29,0 km/h (5 Bft) 100,00 %
11.11.2018 12:32 14,9 C 14,4 C 13,9 C 75 % 1005,0 hPa 0,0 l/m 0 min 0 min 93 W/m 22,5 km/h (4 Bft) 100,00 %
11.11.2018 12:34 14,9 C 14,4 C 13,3 C 74 % 1005,0 hPa 0,0 l/m 0 min 0 min 92 W/m 32,2 km/h (5 Bft) 97,87 %
11.11.2018 12:36 14,9 C 14,4 C 13,3 C 74 % 1005,0 hPa 0,0 l/m 0 min 0 min 86 W/m 29,0 km/h (5 Bft) 100,00 %
11.11.2018 12:38 14,8 C 14,4 C 13,3 C 74 % 1005,0 hPa 0,0 l/m 0 min 0 min 88 W/m 29,0 km/h (5 Bft) 100,00 %
11.11.2018 12:40 14,8 C 14,4 C 13,3 C 74 % 1005,0 hPa 0,0 l/m 0 min 0 min 98 W/m 32,2 km/h (5 Bft) 100,00 %
11.11.2018 12:42 14,8 C 14,4 C 13,3 C 75 % 1005,0 hPa 0,0 l/m 0 min 0 min 116 W/m 19,3 km/h (3 Bft) 100,00 %
11.11.2018 12:44 14,8 C 14,4 C 13,9 C 75 % 1004,9 hPa 0,0 l/m 0 min 0 min 127 W/m 12,9 km/h (3 Bft) 97,87 %
11.11.2018 12:46 14,8 C 14,4 C 13,9 C 75 % 1004,9 hPa 0,0 l/m 0 min 0 min 118 W/m 16,1 km/h (3 Bft) 97,87 %
11.11.2018 12:48 14,8 C 14,4 C 13,9 C 76 % 1004,9 hPa 0,0 l/m 0 min 0 min 105 W/m 16,1 km/h (3 Bft) 95,74 %
11.11.2018 12:50 14,8 C 14,4 C 13,3 C 76 % 1004,8 hPa 0,0 l/m 0 min 0 min 93 W/m 16,1 km/h (3 Bft) 97,87 %
11.11.2018 12:52 14,8 C 14,4 C 13,3 C 76 % 1004,9 hPa 0,0 l/m 0 min 0 min 90 W/m 16,1 km/h (3 Bft) 97,83 %
11.11.2018 12:54 14,8 C 14,4 C 13,3 C 76 % 1005,0 hPa 0,0 l/m 0 min 0 min 85 W/m 16,1 km/h (3 Bft) 97,87 %
11.11.2018 12:56 14,8 C 14,4 C 13,3 C 76 % 1004,8 hPa 0,0 l/m 0 min 0 min 77 W/m 19,3 km/h (3 Bft) 97,87 %
11.11.2018 12:58 14,8 C 14,4 C 13,3 C 76 % 1004,8 hPa 0,0 l/m 0 min 0 min 86 W/m 16,1 km/h (3 Bft) 97,87 %
11.11.2018 13:00 14,8 C 14,4 C 13,3 C 76 % 1004,9 hPa 0,0 l/m 0 min 0 min 107 W/m 19,3 km/h (3 Bft) 97,87 %
11.11.2018 13:02 14,8 C 14,4 C 13,3 C 76 % 1004,8 hPa 0,0 l/m 0 min 0 min 125 W/m 16,1 km/h (3 Bft) 97,87 %
11.11.2018 13:04 14,8 C 14,4 C 13,3 C 77 % 1004,9 hPa 0,0 l/m 0 min 0 min 135 W/m 16,1 km/h (3 Bft) 97,83 %
11.11.2018 13:06 14,8 C 15,0 C 13,9 C 77 % 1005,0 hPa 0,0 l/m 0 min 0 min 147 W/m 16,1 km/h (3 Bft) 98,31 %
11.11.2018 13:08 14,8 C 15,6 C 13,9 C 76 % 1005,0 hPa 0,0 l/m 0 min 0 min 151 W/m 19,3 km/h (3 Bft) 97,14 %
11.11.2018 13:10 14,8 C 15,6 C 13,9 C 77 % 1004,9 hPa 0,0 l/m 2 min 0 min 212 W/m 12,9 km/h (3 Bft) 97,87 %
11.11.2018 13:12 14,8 C 15,6 C 13,9 C 76 % 1005,0 hPa 0,0 l/m 2 min 0 min 194 W/m 16,1 km/h (3 Bft) 95,74 %
11.11.2018 13:14 14,8 C 15,0 C 13,9 C 77 % 1005,0 hPa 0,0 l/m 0 min 0 min 155 W/m 16,1 km/h (3 Bft) 97,87 %
11.11.2018 13:16 14,8 C 15,0 C 13,9 C 76 % 1005,0 hPa 0,0 l/m 0 min 0 min 108 W/m 25,7 km/h (4 Bft) 91,30 %
11.11.2018 13:18 14,9 C 14,4 C 13,9 C 76 % 1005,1 hPa 0,0 l/m 0 min 0 min 83 W/m 16,1 km/h (3 Bft) 97,87 %
11.11.2018 13:20 14,9 C 14,4 C 13,9 C 76 % 1005,1 hPa 0,0 l/m 0 min 0 min 71 W/m 19,3 km/h (3 Bft) 97,87 %
11.11.2018 13:22 14,9 C 14,4 C 13,9 C 76 % 1005,0 hPa 0,0 l/m 0 min 0 min 70 W/m 22,5 km/h (4 Bft) 95,74 %
11.11.2018 13:24 14,9 C 14,4 C 13,9 C 76 % 1005,0 hPa 0,0 l/m 0 min 0 min 72 W/m 19,3 km/h (3 Bft) 93,62 %
11.11.2018 13:26 14,9 C 14,4 C 13,3 C 76 % 1005,0 hPa 0,0 l/m 0 min 0 min 71 W/m 19,3 km/h (3 Bft) 95,74 %
11.11.2018 13:28 14,9 C 14,4 C 13,3 C 76 % 1005,1 hPa 0,0 l/m 0 min 0 min 59 W/m 12,9 km/h (3 Bft) 95,65 %
11.11.2018 13:30 14,9 C 14,4 C 13,3 C 76 % 1005,1 hPa 0,0 l/m 0 min 0 min 53 W/m 12,9 km/h (3 Bft) 95,74 %
11.11.2018 13:32 14,9 C 14,4 C 13,3 C 76 % 1005,0 hPa 0,0 l/m 0 min 0 min 57 W/m 9,7 km/h (2 Bft) 95,74 %
11.11.2018 13:34 14,9 C 14,4 C 13,3 C 76 % 1005,1 hPa 0,0 l/m 0 min 2 min 51 W/m 12,9 km/h (3 Bft) 95,74 %
11.11.2018 13:36 14,9 C 13,9 C 13,3 C 77 % 1005,2 hPa 0,0 l/m 0 min 2 min 45 W/m 16,1 km/h (3 Bft) 100,00 %
11.11.2018 13:38 14,8 C 13,9 C 13,3 C 77 % 1005,1 hPa 0,0 l/m 0 min 0 min 46 W/m 16,1 km/h (3 Bft) 97,22 %
11.11.2018 13:40 14,8 C 13,9 C 13,3 C 77 % 1005,2 hPa 0,0 l/m 0 min 2 min 44 W/m 16,1 km/h (3 Bft) 95,65 %
11.11.2018 13:42 14,8 C 13,9 C 12,8 C 78 % 1005,2 hPa 0,0 l/m 0 min 2 min 46 W/m 12,9 km/h (3 Bft) 95,74 %
11.11.2018 13:44 14,8 C 13,3 C 12,8 C 78 % 1005,3 hPa 0,0 l/m 0 min 2 min 42 W/m 25,7 km/h (4 Bft) 97,87 %
11.11.2018 13:46 14,8 C 12,8 C 12,2 C 78 % 1005,2 hPa 0,0 l/m 0 min 2 min 44 W/m 29,0 km/h (5 Bft) 97,87 %
11.11.2018 13:48 14,7 C 12,8 C 12,2 C 78 % 1005,1 hPa 0,0 l/m 0 min 2 min 39 W/m 19,3 km/h (3 Bft) 97,87 %
11.11.2018 13:50 14,7 C 12,2 C 12,2 C 78 % 1005,1 hPa 0,0 l/m 0 min 2 min 33 W/m 32,2 km/h (5 Bft) 97,87 %
11.11.2018 13:52 14,6 C 12,2 C 12,2 C 78 % 1005,2 hPa 0,0 l/m 0 min 2 min 33 W/m 25,7 km/h (4 Bft) 97,83 %
11.11.2018 13:54 14,6 C 12,2 C 11,7 C 79 % 1005,2 hPa 0,0 l/m 0 min 2 min 35 W/m 22,5 km/h (4 Bft) 97,87 %
11.11.2018 13:56 14,5 C 12,2 C 11,7 C 80 % 1005,2 hPa 0,0 l/m 0 min 2 min 42 W/m 16,1 km/h (3 Bft) 97,87 %
11.11.2018 13:58 14,5 C 12,2 C 11,7 C 80 % 1005,2 hPa 0,0 l/m 0 min 2 min 38 W/m 22,5 km/h (4 Bft) 97,87 %
11.11.2018 14:00 14,4 C 12,2 C 11,7 C 80 % 1005,2 hPa 0,0 l/m 0 min 2 min 32 W/m 16,1 km/h (3 Bft) 95,74 %
11.11.2018 14:02 14,3 C 12,2 C 11,7 C 80 % 1005,2 hPa 0,0 l/m 0 min 2 min 32 W/m 19,3 km/h (3 Bft) 97,87 %
11.11.2018 14:04 14,3 C 12,2 C 11,7 C 80 % 1005,3 hPa 0,0 l/m 0 min 2 min 43 W/m 25,7 km/h (4 Bft) 97,83 %
11.11.2018 14:06 14,2 C 12,2 C 11,7 C 80 % 1005,3 hPa 0,0 l/m 0 min 2 min 58 W/m 16,1 km/h (3 Bft) 96,61 %
11.11.2018 14:08 14,2 C 12,2 C 11,7 C 81 % 1005,1 hPa 0,0 l/m 0 min 2 min 59 W/m 22,5 km/h (4 Bft) 100,00 %
11.11.2018 14:10 14,2 C 12,2 C 12,2 C 81 % 1005,2 hPa 0,0 l/m 0 min 2 min 50 W/m 25,7 km/h (4 Bft) 100,00 %
11.11.2018 14:12 14,2 C 12,2 C 12,2 C 81 % 1005,2 hPa 0,0 l/m 0 min 2 min 45 W/m 19,3 km/h (3 Bft) 97,87 %
11.11.2018 14:14 14,2 C 12,2 C 12,2 C 81 % 1005,2 hPa 0,0 l/m 0 min 2 min 41 W/m 19,3 km/h (3 Bft) 97,83 %
11.11.2018 14:16 14,2 C 12,8 C 12,2 C 81 % 1005,2 hPa 0,0 l/m 0 min 2 min 39 W/m 25,7 km/h (4 Bft) 95,74 %
11.11.2018 14:18 14,2 C 12,8 C 12,2 C 81 % 1005,2 hPa 0,0 l/m 0 min 2 min 37 W/m 19,3 km/h (3 Bft) 95,74 %
11.11.2018 14:20 14,1 C 12,8 C 12,2 C 81 % 1005,3 hPa 0,0 l/m 0 min 2 min 33 W/m 16,1 km/h (3 Bft) 97,87 %
11.11.2018 14:22 14,1 C 12,8 C 12,2 C 81 % 1005,4 hPa 0,0 l/m 0 min 2 min 34 W/m 19,3 km/h (3 Bft) 95,74 %
11.11.2018 14:24 14,0 C 13,3 C 12,2 C 81 % 1005,4 hPa 0,0 l/m 0 min 2 min 32 W/m 29,0 km/h (5 Bft) 95,74 %
11.11.2018 14:26 14,0 C 13,3 C 12,2 C 81 % 1005,4 hPa 0,0 l/m 0 min 2 min 36 W/m 29,0 km/h (5 Bft) 97,83 %
11.11.2018 14:28 14,0 C 13,3 C 12,2 C 81 % 1005,4 hPa 0,0 l/m 0 min 2 min 53 W/m 25,7 km/h (4 Bft) 97,87 %
11.11.2018 14:30 14,0 C 13,3 C 12,8 C 82 % 1005,4 hPa 0,0 l/m 0 min 2 min 51 W/m 19,3 km/h (3 Bft) 97,87 %
11.11.2018 14:32 14,0 C 13,3 C 12,2 C 82 % 1005,3 hPa 0,0 l/m 0 min 0 min 42 W/m 16,1 km/h (3 Bft) 95,74 %
11.11.2018 14:34 13,9 C 13,3 C 12,2 C 82 % 1005,4 hPa 0,0 l/m 0 min 2 min 37 W/m 16,1 km/h (3 Bft) 97,87 %
11.11.2018 14:36 13,9 C 13,3 C 12,8 C 82 % 1005,4 hPa 0,0 l/m 0 min 0 min 34 W/m 19,3 km/h (3 Bft) 97,87 %
11.11.2018 14:38 13,9 C 13,3 C 12,8 C 82 % 1005,4 hPa 0,0 l/m 0 min 2 min 32 W/m 29,0 km/h (5 Bft) 97,83 %
11.11.2018 14:40 13,9 C 12,8 C 12,2 C 82 % 1005,5 hPa 0,0 l/m 0 min 2 min 30 W/m 16,1 km/h (3 Bft) 97,87 %
11.11.2018 14:42 13,9 C 12,8 C 12,2 C 82 % 1005,5 hPa 0,0 l/m 0 min 2 min 28 W/m 29,0 km/h (5 Bft) 97,87 %
11.11.2018 14:44 13,9 C 12,8 C 12,2 C 82 % 1005,5 hPa 0,0 l/m 0 min 2 min 26 W/m 22,5 km/h (4 Bft) 97,87 %
11.11.2018 14:46 13,9 C 12,8 C 12,2 C 82 % 1005,5 hPa 0,0 l/m 0 min 2 min 26 W/m 19,3 km/h (3 Bft) 95,74 %
11.11.2018 14:48 13,9 C 12,8 C 12,2 C 83 % 1005,5 hPa 0,0 l/m 0 min 2 min 32 W/m 22,5 km/h (4 Bft) 97,87 %
11.11.2018 14:50 13,9 C 12,8 C 12,2 C 83 % 1005,3 hPa 0,0 l/m 0 min 2 min 34 W/m 35,4 km/h (5 Bft) 97,83 %
11.11.2018 14:52 13,9 C 12,8 C 12,2 C 83 % 1005,2 hPa 0,0 l/m 0 min 0 min 33 W/m 19,3 km/h (3 Bft) 97,87 %
11.11.2018 14:54 13,8 C 12,8 C 12,2 C 83 % 1005,3 hPa 0,0 l/m 0 min 0 min 27 W/m 22,5 km/h (4 Bft) 97,87 %
11.11.2018 14:56 13,8 C 12,8 C 12,2 C 83 % 1005,4 hPa 0,0 l/m 0 min 0 min 24 W/m 22,5 km/h (4 Bft) 97,87 %
11.11.2018 14:58 13,8 C 12,8 C 12,2 C 83 % 1005,3 hPa 0,0 l/m 0 min 0 min 23 W/m 19,3 km/h (3 Bft) 97,87 %
11.11.2018 15:00 13,7 C 12,8 C 12,2 C 84 % 1005,3 hPa 0,0 l/m 0 min 0 min 23 W/m 16,1 km/h (3 Bft) 97,87 %
11.11.2018 15:02 13,7 C 12,8 C 12,2 C 84 % 1005,4 hPa 0,0 l/m 0 min 0 min 23 W/m 19,3 km/h (3 Bft) 97,83 %
11.11.2018 15:04 13,7 C 12,8 C 12,2 C 83 % 1005,4 hPa 0,0 l/m 0 min 0 min 23 W/m 22,5 km/h (4 Bft) 97,87 %
11.11.2018 15:06 13,7 C 12,8 C 12,2 C 84 % 1005,4 hPa 0,0 l/m 0 min 0 min 25 W/m 16,1 km/h (3 Bft) 93,22 %
11.11.2018 15:08 13,6 C 12,8 C 12,2 C 84 % 1005,4 hPa 0,0 l/m 0 min 0 min 27 W/m 29,0 km/h (5 Bft) 94,29 %
11.11.2018 15:10 13,6 C 12,8 C 12,2 C 83 % 1005,5 hPa 0,0 l/m 0 min 0 min 32 W/m 22,5 km/h (4 Bft) 95,74 %
11.11.2018 15:12 13,6 C 12,8 C 12,2 C 83 % 1005,5 hPa 0,0 l/m 0 min 0 min 35 W/m 29,0 km/h (5 Bft) 97,87 %
11.11.2018 15:14 13,6 C 12,8 C 12,2 C 83 % 1005,6 hPa 0,0 l/m 0 min 0 min 34 W/m 29,0 km/h (5 Bft) 100,00 %
11.11.2018 15:16 13,5 C 12,8 C 12,2 C 83 % 1005,6 hPa 0,0 l/m 0 min 0 min 35 W/m 29,0 km/h (5 Bft) 100,00 %
11.11.2018 15:18 13,5 C 12,8 C 12,2 C 83 % 1005,7 hPa 0,0 l/m 0 min 0 min 35 W/m 19,3 km/h (3 Bft) 95,74 %
11.11.2018 15:20 13,5 C 12,8 C 12,2 C 83 % 1005,8 hPa 0,0 l/m 0 min 0 min 30 W/m 29,0 km/h (5 Bft) 97,87 %
11.11.2018 15:22 13,4 C 12,8 C 12,2 C 82 % 1005,7 hPa 0,0 l/m 0 min 0 min 30 W/m 29,0 km/h (5 Bft) 100,00 %
11.11.2018 15:24 13,4 C 12,8 C 12,2 C 82 % 1005,9 hPa 0,0 l/m 0 min 0 min 26 W/m 32,2 km/h (5 Bft) 100,00 %
11.11.2018 15:26 13,4 C 12,8 C 12,2 C 82 % 1005,7 hPa 0,0 l/m 0 min 0 min 23 W/m 22,5 km/h (4 Bft) 97,87 %
11.11.2018 15:28 13,4 C 12,8 C 12,2 C 82 % 1005,8 hPa 0,0 l/m 0 min 0 min 26 W/m 19,3 km/h (3 Bft) 95,74 %
11.11.2018 15:30 13,4 C 12,8 C 12,2 C 82 % 1005,8 hPa 0,0 l/m 0 min 0 min 27 W/m 29,0 km/h (5 Bft) 95,74 %
11.11.2018 15:32 13,3 C 12,8 C 11,7 C 82 % 1005,9 hPa 0,0 l/m 0 min 0 min 18 W/m 25,7 km/h (4 Bft) 97,87 %
11.11.2018 15:34 13,3 C 12,8 C 11,7 C 82 % 1006,0 hPa 0,0 l/m 0 min 0 min 11 W/m 32,2 km/h (5 Bft) 97,87 %
11.11.2018 15:36 13,3 C 12,8 C 11,7 C 82 % 1005,9 hPa 0,0 l/m 0 min 0 min 13 W/m 29,0 km/h (5 Bft) 94,83 %
11.11.2018 15:38 13,3 C 12,8 C 11,7 C 82 % 1005,8 hPa 0,0 l/m 0 min 0 min 17 W/m 22,5 km/h (4 Bft) 97,14 %
11.11.2018 15:40 13,2 C 12,8 C 11,7 C 82 % 1005,7 hPa 0,0 l/m 0 min 0 min 18 W/m 22,5 km/h (4 Bft) 97,87 %
11.11.2018 15:42 13,2 C 12,8 C 11,7 C 82 % 1005,7 hPa 0,0 l/m 0 min 0 min 18 W/m 38,6 km/h (5 Bft) 95,74 %
11.11.2018 15:44 13,2 C 12,8 C 11,7 C 82 % 1005,6 hPa 0,0 l/m 0 min 0 min 22 W/m 25,7 km/h (4 Bft) 97,87 %
11.11.2018 15:46 13,2 C 12,2 C 11,7 C 82 % 1005,9 hPa 0,0 l/m 0 min 0 min 24 W/m 12,9 km/h (3 Bft) 97,87 %
11.11.2018 15:48 13,2 C 12,2 C 11,7 C 83 % 1005,9 hPa 0,0 l/m 0 min 0 min 21 W/m 25,7 km/h (4 Bft) 97,83 %
11.11.2018 15:50 13,2 C 12,2 C 11,7 C 83 % 1005,8 hPa 0,0 l/m 0 min 0 min 24 W/m 19,3 km/h (3 Bft) 97,87 %
11.11.2018 15:52 13,2 C 12,2 C 11,7 C 83 % 1005,7 hPa 0,0 l/m 0 min 0 min 26 W/m 16,1 km/h (3 Bft) 97,87 %
11.11.2018 15:54 13,2 C 12,2 C 11,7 C 83 % 1005,6 hPa 0,0 l/m 0 min 0 min 25 W/m 25,7 km/h (4 Bft) 97,87 %
11.11.2018 15:56 13,1 C 12,2 C 11,7 C 83 % 1005,6 hPa 0,0 l/m 0 min 0 min 25 W/m 19,3 km/h (3 Bft) 95,74 %
11.11.2018 15:58 13,1 C 12,2 C 11,7 C 83 % 1005,6 hPa 0,0 l/m 0 min 0 min 19 W/m 19,3 km/h (3 Bft) 95,74 %
11.11.2018 16:00 13,1 C 12,2 C 11,7 C 84 % 1005,6 hPa 0,0 l/m 0 min 0 min 13 W/m 16,1 km/h (3 Bft) 100,00 %
11.11.2018 16:02 13,1 C 12,2 C 11,7 C 84 % 1005,7 hPa 0,0 l/m 0 min 0 min 12 W/m 12,9 km/h (3 Bft) 93,62 %
11.11.2018 16:04 13,1 C 12,2 C 11,7 C 84 % 1005,8 hPa 0,0 l/m 0 min 0 min 13 W/m 19,3 km/h (3 Bft) 97,87 %
11.11.2018 16:06 13,1 C 12,2 C 11,7 C 84 % 1005,7 hPa 0,0 l/m 0 min 0 min 14 W/m 16,1 km/h (3 Bft) 96,61 %
11.11.2018 16:08 13,1 C 12,2 C 11,7 C 84 % 1005,7 hPa 0,0 l/m 0 min 0 min 17 W/m 19,3 km/h (3 Bft) 97,14 %
11.11.2018 16:10 13,0 C 12,2 C 11,7 C 85 % 1005,6 hPa 0,0 l/m 0 min 0 min 22 W/m 22,5 km/h (4 Bft) 95,74 %
11.11.2018 16:12 13,0 C 12,2 C 11,7 C 85 % 1005,5 hPa 0,0 l/m 0 min 2 min 29 W/m 9,7 km/h (2 Bft) 97,83 %
11.11.2018 16:14 13,0 C 12,2 C 11,7 C 85 % 1005,6 hPa 0,0 l/m 0 min 0 min 32 W/m 16,1 km/h (3 Bft) 97,87 %
11.11.2018 16:16 13,0 C 11,7 C 11,1 C 85 % 1005,7 hPa 0,0 l/m 0 min 2 min 24 W/m 22,5 km/h (4 Bft) 97,87 %
11.11.2018 16:18 13,0 C 11,7 C 11,1 C 85 % 1005,7 hPa 0,0 l/m 0 min 2 min 13 W/m 12,9 km/h (3 Bft) 95,74 %
11.11.2018 16:20 12,9 C 11,7 C 11,1 C 85 % 1005,7 hPa 0,0 l/m 0 min 0 min 9 W/m 16,1 km/h (3 Bft) 97,87 %
11.11.2018 16:22 12,9 C 11,7 C 11,1 C 86 % 1005,8 hPa 0,0 l/m 0 min 0 min 6 W/m 12,9 km/h (3 Bft) 97,87 %
11.11.2018 16:24 12,9 C 11,7 C 11,1 C 86 % 1005,8 hPa 0,0 l/m 0 min 0 min 5 W/m 19,3 km/h (3 Bft) 97,83 %
11.11.2018 16:26 12,9 C 11,7 C 11,1 C 86 % 1005,8 hPa 0,0 l/m 0 min 0 min 0 W/m 12,9 km/h (3 Bft) 97,87 %
11.11.2018 16:28 12,9 C 11,7 C 11,1 C 86 % 1005,8 hPa 0,0 l/m 0 min 0 min 0 W/m 19,3 km/h (3 Bft) 97,87 %
11.11.2018 16:30 12,8 C 11,7 C 11,1 C 86 % 1005,7 hPa 0,0 l/m 0 min 0 min 0 W/m 16,1 km/h (3 Bft) 97,87 %
11.11.2018 16:32 12,8 C 11,7 C 11,1 C 86 % 1005,9 hPa 0,0 l/m 0 min 0 min 0 W/m 19,3 km/h (3 Bft) 97,87 %
11.11.2018 16:34 12,8 C 11,7 C 11,1 C 86 % 1005,9 hPa 0,0 l/m 0 min 0 min 0 W/m 22,5 km/h (4 Bft) 97,83 %
11.11.2018 16:36 12,8 C 11,7 C 11,1 C 87 % 1006,0 hPa 0,0 l/m 0 min 0 min 0 W/m 12,9 km/h (3 Bft) 96,61 %
11.11.2018 16:38 12,7 C 11,7 C 11,1 C 87 % 1006,0 hPa 0,0 l/m 0 min 0 min 0 W/m 16,1 km/h (3 Bft) 97,14 %
11.11.2018 16:40 12,7 C 11,7 C 11,1 C 87 % 1006,1 hPa 0,0 l/m 0 min 0 min 0 W/m 22,5 km/h (4 Bft) 97,87 %
11.11.2018 16:42 12,7 C 11,7 C 11,1 C 87 % 1006,1 hPa 0,0 l/m 0 min 0 min 0 W/m 12,9 km/h (3 Bft) 95,74 %
11.11.2018 16:44 12,7 C 11,7 C 11,1 C 87 % 1006,1 hPa 0,0 l/m 0 min 0 min 0 W/m 9,7 km/h (2 Bft) 95,74 %
11.11.2018 16:46 12,7 C 11,7 C 11,1 C 87 % 1006,1 hPa 0,0 l/m 0 min 2 min 0 W/m 12,9 km/h (3 Bft) 97,83 %
11.11.2018 16:48 12,7 C 11,7 C 11,1 C 88 % 1006,2 hPa 0,0 l/m 0 min 2 min 0 W/m 16,1 km/h (3 Bft) 97,87 %
11.11.2018 16:50 12,7 C 11,7 C 11,1 C 88 % 1006,2 hPa 0,0 l/m 0 min 2 min 0 W/m 9,7 km/h (2 Bft) 97,87 %
11.11.2018 16:52 12,7 C 11,7 C 11,1 C 88 % 1006,2 hPa 0,0 l/m 0 min 2 min 0 W/m 16,1 km/h (3 Bft) 95,74 %
11.11.2018 16:54 12,6 C 11,7 C 11,1 C 88 % 1006,1 hPa 0,0 l/m 0 min 2 min 0 W/m 19,3 km/h (3 Bft) 97,87 %
11.11.2018 16:56 12,6 C 11,1 C 11,1 C 88 % 1006,2 hPa 0,0 l/m 0 min 2 min 0 W/m 9,7 km/h (2 Bft) 97,87 %
11.11.2018 16:58 12,6 C 11,1 C 11,1 C 88 % 1006,2 hPa 0,0 l/m 0 min 0 min 0 W/m 16,1 km/h (3 Bft) 100,00 %
11.11.2018 17:00 12,6 C 11,1 C 11,1 C 88 % 1006,2 hPa 0,0 l/m 0 min 0 min 0 W/m 12,9 km/h (3 Bft) 100,00 %
11.11.2018 17:02 12,6 C 11,1 C 11,1 C 88 % 1006,2 hPa 0,0 l/m 0 min 0 min 0 W/m 16,1 km/h (3 Bft) 100,00 %
11.11.2018 17:04 12,6 C 11,7 C 11,1 C 88 % 1006,1 hPa 0,0 l/m 0 min 2 min 0 W/m 9,7 km/h (2 Bft) 100,00 %
11.11.2018 17:06 12,6 C 11,1 C 11,1 C 88 % 1006,2 hPa 0,0 l/m 0 min 0 min 0 W/m 12,9 km/h (3 Bft) 96,55 %
11.11.2018 17:08 12,6 C 11,7 C 11,1 C 89 % 1006,1 hPa 0,0 l/m 0 min 2 min 0 W/m 22,5 km/h (4 Bft) 100,00 %
11.11.2018 17:10 12,6 C 11,7 C 11,1 C 89 % 1006,1 hPa 0,0 l/m 0 min 0 min 0 W/m 9,7 km/h (2 Bft) 100,00 %
11.11.2018 17:12 12,6 C 11,7 C 11,1 C 89 % 1006,1 hPa 0,0 l/m 0 min 2 min 0 W/m 12,9 km/h (3 Bft) 100,00 %
11.11.2018 17:14 12,5 C 11,7 C 11,1 C 89 % 1006,1 hPa 0,0 l/m 0 min 0 min 0 W/m 16,1 km/h (3 Bft) 97,83 %
11.11.2018 17:16 12,5 C 11,7 C 11,1 C 89 % 1006,1 hPa 0,0 l/m 0 min 0 min 0 W/m 22,5 km/h (4 Bft) 100,00 %
11.11.2018 17:18 12,5 C 11,7 C 11,1 C 89 % 1006,1 hPa 0,0 l/m 0 min 0 min 0 W/m 12,9 km/h (3 Bft) 97,87 %
11.11.2018 17:20 12,5 C 11,7 C 11,1 C 89 % 1006,1 hPa 0,0 l/m 0 min 0 min 0 W/m 9,7 km/h (2 Bft) 100,00 %
11.11.2018 17:22 12,5 C 11,7 C 11,1 C 89 % 1006,2 hPa 0,0 l/m 0 min 0 min 0 W/m 16,1 km/h (3 Bft) 100,00 %
11.11.2018 17:24 12,4 C 11,7 C 11,1 C 89 % 1006,2 hPa 0,0 l/m 0 min 0 min 0 W/m 12,9 km/h (3 Bft) 100,00 %
11.11.2018 17:26 12,4 C 11,7 C 11,1 C 89 % 1006,2 hPa 0,0 l/m 0 min 0 min 0 W/m 9,7 km/h (2 Bft) 100,00 %
11.11.2018 17:28 12,4 C 11,7 C 11,1 C 89 % 1006,2 hPa 0,0 l/m 0 min 0 min 0 W/m 16,1 km/h (3 Bft) 100,00 %
11.11.2018 17:30 12,4 C 11,7 C 11,1 C 89 % 1006,2 hPa 0,0 l/m 0 min 0 min 0 W/m 12,9 km/h (3 Bft) 100,00 %
11.11.2018 17:32 12,4 C 11,7 C 11,1 C 89 % 1006,2 hPa 0,0 l/m 0 min 0 min 0 W/m 12,9 km/h (3 Bft) 100,00 %
11.11.2018 17:34 12,4 C 11,7 C 11,1 C 89 % 1006,2 hPa 0,0 l/m 0 min 0 min 0 W/m 16,1 km/h (3 Bft) 97,87 %
11.11.2018 17:36 12,4 C 11,7 C 11,1 C 89 % 1006,1 hPa 0,0 l/m 0 min 0 min 0 W/m 12,9 km/h (3 Bft) 100,00 %
11.11.2018 17:38 12,4 C 11,7 C 11,1 C 89 % 1006,1 hPa 0,0 l/m 0 min 0 min 0 W/m 12,9 km/h (3 Bft) 100,00 %
11.11.2018 17:40 12,4 C 11,7 C 11,1 C 89 % 1006,0 hPa 0,0 l/m 0 min 0 min 0 W/m 12,9 km/h (3 Bft) 100,00 %
11.11.2018 17:42 12,4 C 11,7 C 11,1 C 89 % 1006,0 hPa 0,0 l/m 0 min 0 min 0 W/m 12,9 km/h (3 Bft) 100,00 %
11.11.2018 17:44 12,4 C 11,7 C 11,1 C 89 % 1006,2 hPa 0,0 l/m 0 min 0 min 0 W/m 12,9 km/h (3 Bft) 97,87 %
11.11.2018 17:46 12,4 C 11,7 C 11,1 C 89 % 1006,2 hPa 0,0 l/m 0 min 0 min 0 W/m 9,7 km/h (2 Bft) 100,00 %
11.11.2018 17:48 12,4 C 11,7 C 11,1 C 89 % 1006,2 hPa 0,0 l/m 0 min 0 min 0 W/m 12,9 km/h (3 Bft) 97,87 %
11.11.2018 17:50 12,4 C 11,7 C 11,1 C 89 % 1006,2 hPa 0,0 l/m 0 min 2 min 0 W/m 16,1 km/h (3 Bft) 95,65 %
11.11.2018 17:52 12,4 C 11,7 C 11,1 C 89 % 1006,2 hPa 0,0 l/m 0 min 2 min 0 W/m 9,7 km/h (2 Bft) 97,87 %
11.11.2018 17:54 12,4 C 11,7 C 11,1 C 89 % 1006,2 hPa 0,0 l/m 0 min 2 min 0 W/m 12,9 km/h (3 Bft) 97,87 %
11.11.2018 17:56 12,4 C 11,1 C 11,1 C 90 % 1006,1 hPa 0,0 l/m 0 min 2 min 0 W/m 12,9 km/h (3 Bft) 95,74 %
11.11.2018 17:58 12,4 C 11,1 C 11,1 C 90 % 1006,2 hPa 0,0 l/m 0 min 0 min 0 W/m 12,9 km/h (3 Bft) 95,74 %
11.11.2018 18:00 12,4 C 11,7 C 11,1 C 90 % 1006,2 hPa 0,0 l/m 0 min 0 min 0 W/m 16,1 km/h (3 Bft) 97,87 %
11.11.2018 18:02 12,3 C 11,7 C 11,1 C 90 % 1006,2 hPa 0,0 l/m 0 min 0 min 0 W/m 16,1 km/h (3 Bft) 97,83 %
11.11.2018 18:04 12,3 C 11,7 C 11,1 C 90 % 1006,3 hPa 0,0 l/m 0 min 0 min 0 W/m 9,7 km/h (2 Bft) 95,74 %
11.11.2018 18:08 12,3 C 11,7 C 11,1 C 89 % 1006,3 hPa 0,0 l/m 0 min 0 min 0 W/m 19,3 km/h (3 Bft) 94,68 %
11.11.2018 18:10 12,3 C 12,2 C 11,1 C 89 % 1006,4 hPa 0,0 l/m 0 min 0 min 0 W/m 16,1 km/h (3 Bft) 95,74 %
11.11.2018 18:12 12,3 C 12,2 C 11,1 C 89 % 1006,4 hPa 0,0 l/m 0 min 0 min 0 W/m 22,5 km/h (4 Bft) 95,74 %
11.11.2018 18:14 12,4 C 12,2 C 11,7 C 89 % 1006,3 hPa 0,0 l/m 0 min 2 min 0 W/m 22,5 km/h (4 Bft) 95,65 %
11.11.2018 18:16 12,4 C 12,2 C 11,7 C 89 % 1006,4 hPa 0,0 l/m 0 min 2 min 0 W/m 25,7 km/h (4 Bft) 93,62 %
11.11.2018 18:18 12,4 C 12,2 C 11,7 C 88 % 1006,4 hPa 0,0 l/m 0 min 0 min 0 W/m 29,0 km/h (5 Bft) 95,74 %
11.11.2018 18:20 12,5 C 12,2 C 11,7 C 88 % 1006,3 hPa 0,0 l/m 0 min 0 min 0 W/m 19,3 km/h (3 Bft) 95,74 %
11.11.2018 18:22 12,6 C 12,2 C 11,7 C 88 % 1006,3 hPa 0,0 l/m 0 min 0 min 0 W/m 22,5 km/h (4 Bft) 95,74 %
11.11.2018 18:24 12,6 C 12,2 C 11,7 C 88 % 1006,4 hPa 0,0 l/m 0 min 0 min 0 W/m 25,7 km/h (4 Bft) 95,74 %
11.11.2018 18:26 12,6 C 12,2 C 11,7 C 88 % 1006,3 hPa 0,0 l/m 0 min 0 min 0 W/m 22,5 km/h (4 Bft) 95,65 %
11.11.2018 18:28 12,7 C 12,2 C 11,7 C 87 % 1006,5 hPa 0,0 l/m 0 min 0 min 0 W/m 16,1 km/h (3 Bft) 95,74 %
11.11.2018 18:30 12,7 C 12,2 C 11,7 C 87 % 1006,5 hPa 0,0 l/m 0 min 0 min 0 W/m 19,3 km/h (3 Bft) 95,74 %
11.11.2018 18:32 12,7 C 12,2 C 11,7 C 87 % 1006,6 hPa 0,0 l/m 0 min 0 min 0 W/m 12,9 km/h (3 Bft) 95,74 %
11.11.2018 18:34 12,7 C 12,2 C 11,7 C 87 % 1006,6 hPa 0,0 l/m 0 min 0 min 0 W/m 16,1 km/h (3 Bft) 93,62 %
11.11.2018 18:36 12,8 C 12,2 C 11,7 C 87 % 1006,8 hPa 0,0 l/m 0 min 0 min 0 W/m 9,7 km/h (2 Bft) 97,83 %
11.11.2018 18:38 12,8 C 12,2 C 11,7 C 86 % 1006,8 hPa 0,0 l/m 0 min 0 min 0 W/m 12,9 km/h (3 Bft) 95,74 %
11.11.2018 18:40 12,8 C 12,2 C 11,7 C 86 % 1006,9 hPa 0,0 l/m 0 min 2 min 0 W/m 12,9 km/h (3 Bft) 95,74 %
11.11.2018 18:42 12,8 C 12,2 C 11,7 C 86 % 1006,8 hPa 0,0 l/m 0 min 2 min 0 W/m 12,9 km/h (3 Bft) 95,74 %
11.11.2018 18:44 12,8 C 12,2 C 11,7 C 86 % 1006,8 hPa 0,0 l/m 0 min 2 min 0 W/m 9,7 km/h (2 Bft) 95,74 %
11.11.2018 18:46 12,8 C 11,7 C 11,7 C 86 % 1006,8 hPa 0,0 l/m 0 min 2 min 0 W/m 9,7 km/h (2 Bft) 95,74 %
11.11.2018 18:48 12,9 C 11,7 C 11,1 C 87 % 1006,9 hPa 0,0 l/m 0 min 2 min 0 W/m 16,1 km/h (3 Bft) 91,30 %
11.11.2018 18:50 12,9 C 11,1 C 11,1 C 87 % 1006,9 hPa 0,0 l/m 0 min 2 min 0 W/m 16,1 km/h (3 Bft) 95,74 %
11.11.2018 18:52 12,9 C 11,1 C 11,1 C 87 % 1006,9 hPa 0,0 l/m 0 min 2 min 0 W/m 12,9 km/h (3 Bft) 95,74 %
11.11.2018 18:54 12,9 C 11,1 C 10,6 C 87 % 1006,9 hPa 0,0 l/m 0 min 2 min 0 W/m 9,7 km/h (2 Bft) 97,87 %
11.11.2018 18:56 12,9 C 11,1 C 10,6 C 87 % 1006,8 hPa 0,0 l/m 0 min 2 min 0 W/m 9,7 km/h (2 Bft) 95,74 %
11.11.2018 18:58 12,8 C 10,6 C 10,6 C 87 % 1006,7 hPa 0,0 l/m 0 min 2 min 0 W/m 12,9 km/h (3 Bft) 97,87 %
11.11.2018 19:00 12,8 C 10,6 C 10,6 C 87 % 1006,7 hPa 0,0 l/m 0 min 2 min 0 W/m 9,7 km/h (2 Bft) 97,83 %
11.11.2018 19:02 12,8 C 10,6 C 10,6 C 87 % 1006,7 hPa 0,0 l/m 0 min 2 min 0 W/m 6,4 km/h (2 Bft) 95,74 %
11.11.2018 19:04 12,8 C 10,6 C 10,0 C 87 % 1006,7 hPa 0,0 l/m 0 min 2 min 0 W/m 9,7 km/h (2 Bft) 95,74 %
11.11.2018 19:06 12,8 C 10,6 C 10,0 C 88 % 1006,7 hPa 0,2 l/m 0 min 2 min 0 W/m 16,1 km/h (3 Bft) 97,87 %
11.11.2018 19:08 12,7 C 10,6 C 10,0 C 88 % 1006,8 hPa 0,0 l/m 0 min 2 min 0 W/m 9,7 km/h (2 Bft) 97,87 %
11.11.2018 19:10 12,7 C 10,6 C 10,0 C 88 % 1006,9 hPa 0,0 l/m 0 min 2 min 0 W/m 6,4 km/h (2 Bft) 95,74 %
11.11.2018 19:12 12,7 C 10,6 C 10,0 C 88 % 1006,9 hPa 0,0 l/m 0 min 2 min 0 W/m 9,7 km/h (2 Bft) 93,48 %
11.11.2018 19:14 12,7 C 10,6 C 10,0 C 88 % 1006,8 hPa 0,0 l/m 0 min 2 min 0 W/m 9,7 km/h (2 Bft) 97,87 %
11.11.2018 19:16 12,6 C 10,6 C 10,0 C 88 % 1006,8 hPa 0,0 l/m 0 min 2 min 0 W/m 9,7 km/h (2 Bft) 95,74 %
11.11.2018 19:18 12,6 C 10,6 C 10,0 C 88 % 1006,7 hPa 0,0 l/m 0 min 2 min 0 W/m 12,9 km/h (3 Bft) 97,87 %
11.11.2018 19:20 12,6 C 10,6 C 10,0 C 89 % 1006,5 hPa 0,2 l/m 0 min 2 min 0 W/m 12,9 km/h (3 Bft) 97,87 %
11.11.2018 19:22 12,6 C 10,0 C 10,0 C 89 % 1006,6 hPa 0,0 l/m 0 min 2 min 0 W/m 6,4 km/h (2 Bft) 95,74 %
11.11.2018 19:24 12,5 C 10,0 C 10,0 C 89 % 1006,5 hPa 0,0 l/m 0 min 2 min 0 W/m 9,7 km/h (2 Bft) 97,83 %
11.11.2018 19:26 12,4 C 10,6 C 10,0 C 89 % 1006,5 hPa 0,0 l/m 0 min 2 min 0 W/m 9,7 km/h (2 Bft) 97,87 %
11.11.2018 19:28 12,4 C 10,6 C 10,0 C 89 % 1006,7 hPa 0,0 l/m 0 min 2 min 0 W/m 9,7 km/h (2 Bft) 91,49 %
11.11.2018 19:30 12,4 C 10,6 C 10,0 C 89 % 1007,0 hPa 0,0 l/m 0 min 2 min 0 W/m 6,4 km/h (2 Bft) 97,87 %
11.11.2018 19:32 12,4 C 10,6 C 10,0 C 89 % 1007,2 hPa 0,0 l/m 0 min 2 min 0 W/m 9,7 km/h (2 Bft) 97,87 %
11.11.2018 19:34 12,3 C 10,6 C 10,0 C 89 % 1007,2 hPa 0,0 l/m 0 min 2 min 0 W/m 9,7 km/h (2 Bft) 93,62 %
11.11.2018 19:36 12,3 C 10,6 C 10,0 C 90 % 1007,1 hPa 0,0 l/m 0 min 2 min 0 W/m 6,4 km/h (2 Bft) 97,83 %
11.11.2018 19:38 12,3 C 10,6 C 10,0 C 90 % 1007,2 hPa 0,0 l/m 0 min 2 min 0 W/m 3,2 km/h (1 Bft) 97,87 %
11.11.2018 19:40 12,3 C 10,6 C 10,0 C 90 % 1007,4 hPa 0,0 l/m 0 min 2 min 0 W/m 9,7 km/h (2 Bft) 95,92 %
11.11.2018 19:42 12,3 C 10,0 C 10,0 C 90 % 1007,3 hPa 0,0 l/m 0 min 2 min 0 W/m 3,2 km/h (1 Bft) 97,83 %
11.11.2018 19:44 12,3 C 10,0 C 10,0 C 90 % 1007,3 hPa 0,0 l/m 0 min 2 min 0 W/m 6,4 km/h (2 Bft) 97,87 %
11.11.2018 19:46 12,2 C 10,0 C 10,0 C 90 % 1007,4 hPa 0,0 l/m 0 min 2 min 0 W/m 6,4 km/h (2 Bft) 95,74 %
11.11.2018 19:48 12,2 C 10,0 C 10,0 C 90 % 1007,6 hPa 0,0 l/m 0 min 2 min 0 W/m 9,7 km/h (2 Bft) 97,87 %
11.11.2018 19:50 12,2 C 10,0 C 10,0 C 90 % 1007,6 hPa 0,0 l/m 0 min 2 min 0 W/m 9,7 km/h (2 Bft) 100,00 %
11.11.2018 19:52 12,2 C 10,0 C 10,0 C 90 % 1007,8 hPa 0,0 l/m 0 min 2 min 0 W/m 12,9 km/h (3 Bft) 100,00 %
11.11.2018 19:54 12,2 C 10,0 C 10,0 C 90 % 1007,8 hPa 0,0 l/m 0 min 2 min 0 W/m 9,7 km/h (2 Bft) 100,00 %
11.11.2018 19:56 12,1 C 10,0 C 10,0 C 90 % 1007,8 hPa 0,0 l/m 0 min 2 min 0 W/m 9,7 km/h (2 Bft) 97,87 %
11.11.2018 19:58 12,1 C 10,0 C 10,0 C 91 % 1007,7 hPa 0,0 l/m 0 min 2 min 0 W/m 6,4 km/h (2 Bft) 100,00 %
11.11.2018 20:00 12,1 C 10,0 C 10,0 C 91 % 1007,7 hPa 0,0 l/m 0 min 2 min 0 W/m 6,4 km/h (2 Bft) 97,87 %
11.11.2018 20:02 12,1 C 10,0 C 10,0 C 91 % 1007,7 hPa 0,0 l/m 0 min 2 min 0 W/m 9,7 km/h (2 Bft) 97,87 %
11.11.2018 20:04 12,0 C 10,0 C 10,0 C 91 % 1007,8 hPa 0,0 l/m 0 min 2 min 0 W/m 9,7 km/h (2 Bft) 95,74 %
11.11.2018 20:06 12,0 C 10,0 C 10,0 C 91 % 1007,8 hPa 0,0 l/m 0 min 2 min 0 W/m 12,9 km/h (3 Bft) 100,00 %
11.11.2018 20:08 12,0 C 10,0 C 10,0 C 91 % 1007,8 hPa 0,0 l/m 0 min 2 min 0 W/m 12,9 km/h (3 Bft) 100,00 %
11.11.2018 20:10 12,0 C 10,0 C 10,0 C 91 % 1007,8 hPa 0,2 l/m 0 min 2 min 0 W/m 22,5 km/h (4 Bft) 100,00 %
11.11.2018 20:12 12,0 C 10,0 C 10,0 C 91 % 1007,7 hPa 0,0 l/m 0 min 2 min 0 W/m 12,9 km/h (3 Bft) 100,00 %
11.11.2018 20:14 11,9 C 10,0 C 10,0 C 91 % 1007,8 hPa 0,0 l/m 0 min 2 min 0 W/m 9,7 km/h (2 Bft) 100,00 %
11.11.2018 20:16 11,9 C 10,0 C 10,0 C 91 % 1007,9 hPa 0,0 l/m 0 min 2 min 0 W/m 12,9 km/h (3 Bft) 100,00 %
11.11.2018 20:18 11,9 C 10,0 C 10,0 C 91 % 1007,8 hPa 0,2 l/m 0 min 2 min 0 W/m 16,1 km/h (3 Bft) 100,00 %
11.11.2018 20:20 11,9 C 10,0 C 10,0 C 91 % 1007,8 hPa 0,0 l/m 0 min 2 min 0 W/m 9,7 km/h (2 Bft) 100,00 %
11.11.2018 20:22 11,9 C 10,0 C 9,4 C 91 % 1007,8 hPa 0,0 l/m 0 min 2 min 0 W/m 19,3 km/h (3 Bft) 100,00 %
11.11.2018 20:24 11,9 C 10,0 C 10,0 C 91 % 1007,9 hPa 0,0 l/m 0 min 2 min 0 W/m 12,9 km/h (3 Bft) 100,00 %
11.11.2018 20:26 11,9 C 10,0 C 9,4 C 91 % 1007,9 hPa 0,0 l/m 0 min 2 min 0 W/m 12,9 km/h (3 Bft) 95,74 %
11.11.2018 20:28 11,8 C 10,0 C 9,4 C 91 % 1007,8 hPa 0,0 l/m 0 min 2 min 0 W/m 12,9 km/h (3 Bft) 100,00 %
11.11.2018 20:30 11,8 C 10,0 C 9,4 C 91 % 1007,7 hPa 0,0 l/m 0 min 2 min 0 W/m 9,7 km/h (2 Bft) 100,00 %
11.11.2018 20:32 11,8 C 10,0 C 9,4 C 91 % 1007,9 hPa 0,0 l/m 0 min 2 min 0 W/m 12,9 km/h (3 Bft) 97,87 %
11.11.2018 20:34 11,8 C 10,0 C 9,4 C 92 % 1008,1 hPa 0,0 l/m 0 min 2 min 0 W/m 12,9 km/h (3 Bft) 100,00 %
11.11.2018 20:36 11,8 C 10,0 C 9,4 C 92 % 1008,2 hPa 0,0 l/m 0 min 2 min 0 W/m 12,9 km/h (3 Bft) 100,00 %
11.11.2018 20:38 11,8 C 10,0 C 9,4 C 92 % 1008,2 hPa 0,0 l/m 0 min 2 min 0 W/m 16,1 km/h (3 Bft) 100,00 %
11.11.2018 20:40 11,8 C 10,0 C 9,4 C 92 % 1008,2 hPa 0,0 l/m 0 min 2 min 0 W/m 16,1 km/h (3 Bft) 97,83 %
11.11.2018 20:42 11,7 C 10,0 C 9,4 C 92 % 1008,1 hPa 0,0 l/m 0 min 2 min 0 W/m 9,7 km/h (2 Bft) 97,87 %
11.11.2018 20:44 11,7 C 10,0 C 9,4 C 92 % 1007,9 hPa 0,0 l/m 0 min 0 min 0 W/m 19,3 km/h (3 Bft) 95,74 %
11.11.2018 20:46 11,7 C 10,0 C 9,4 C 92 % 1007,9 hPa 0,0 l/m 0 min 0 min 0 W/m 19,3 km/h (3 Bft) 95,83 %
11.11.2018 20:48 11,7 C 10,0 C 9,4 C 92 % 1007,9 hPa 0,0 l/m 0 min 0 min 0 W/m 19,3 km/h (3 Bft) 97,87 %
11.11.2018 20:50 11,7 C 10,0 C 9,4 C 92 % 1007,9 hPa 0,0 l/m 0 min 0 min 0 W/m 19,3 km/h (3 Bft) 97,87 %
11.11.2018 20:52 11,6 C 10,0 C 9,4 C 92 % 1007,7 hPa 0,0 l/m 0 min 2 min 0 W/m 19,3 km/h (3 Bft) 97,87 %
11.11.2018 20:54 11,6 C 10,0 C 9,4 C 92 % 1007,7 hPa 0,0 l/m 0 min 2 min 0 W/m 9,7 km/h (2 Bft) 97,87 %
11.11.2018 20:56 11,6 C 10,0 C 9,4 C 92 % 1007,6 hPa 0,0 l/m 0 min 2 min 0 W/m 6,4 km/h (2 Bft) 97,83 %
11.11.2018 20:58 11,6 C 10,0 C 9,4 C 92 % 1007,7 hPa 0,0 l/m 0 min 2 min 0 W/m 9,7 km/h (2 Bft) 95,74 %
11.11.2018 21:00 11,6 C 10,0 C 9,4 C 92 % 1007,9 hPa 0,0 l/m 0 min 2 min 0 W/m 9,7 km/h (2 Bft) 95,74 %
11.11.2018 21:02 11,6 C 10,0 C 9,4 C 92 % 1008,2 hPa 0,0 l/m 0 min 2 min 0 W/m 12,9 km/h (3 Bft) 97,87 %
11.11.2018 21:04 11,5 C 10,0 C 9,4 C 92 % 1008,4 hPa 0,0 l/m 0 min 2 min 0 W/m 9,7 km/h (2 Bft) 97,87 %
11.11.2018 21:06 11,5 C 10,0 C 9,4 C 92 % 1008,5 hPa 0,0 l/m 0 min 0 min 0 W/m 16,1 km/h (3 Bft) 95,83 %
11.11.2018 21:08 11,5 C 10,0 C 9,4 C 92 % 1008,6 hPa 0,0 l/m 0 min 0 min 0 W/m 12,9 km/h (3 Bft) 97,87 %
11.11.2018 21:10 11,5 C 10,0 C 9,4 C 92 % 1008,5 hPa 0,0 l/m 0 min 2 min 0 W/m 9,7 km/h (2 Bft) 97,87 %
11.11.2018 21:12 11,4 C 10,0 C 9,4 C 92 % 1008,6 hPa 0,0 l/m 0 min 2 min 0 W/m 22,5 km/h (4 Bft) 97,87 %
11.11.2018 21:14 11,4 C 10,0 C 9,4 C 92 % 1008,5 hPa 0,0 l/m 0 min 0 min 0 W/m 16,1 km/h (3 Bft) 97,83 %
11.11.2018 21:16 11,4 C 10,0 C 9,4 C 92 % 1008,5 hPa 0,0 l/m 0 min 2 min 0 W/m 9,7 km/h (2 Bft) 95,74 %
11.11.2018 21:18 11,4 C 10,0 C 9,4 C 92 % 1008,4 hPa 0,0 l/m 0 min 2 min 0 W/m 9,7 km/h (2 Bft) 97,87 %
11.11.2018 21:20 11,4 C 10,0 C 9,4 C 92 % 1008,5 hPa 0,0 l/m 0 min 2 min 0 W/m 9,7 km/h (2 Bft) 97,87 %
11.11.2018 21:22 11,4 C 10,0 C 9,4 C 92 % 1008,7 hPa 0,0 l/m 0 min 2 min 0 W/m 16,1 km/h (3 Bft) 97,87 %
11.11.2018 21:24 11,4 C 9,4 C 9,4 C 92 % 1008,7 hPa 0,0 l/m 0 min 2 min 0 W/m 16,1 km/h (3 Bft) 97,87 %
11.11.2018 21:26 11,4 C 9,4 C 9,4 C 92 % 1008,7 hPa 0,0 l/m 0 min 2 min 0 W/m 9,7 km/h (2 Bft) 100,00 %
11.11.2018 21:28 11,4 C 9,4 C 9,4 C 92 % 1008,8 hPa 0,0 l/m 0 min 0 min 0 W/m 12,9 km/h (3 Bft) 97,87 %
11.11.2018 21:30 11,4 C 9,4 C 9,4 C 92 % 1008,9 hPa 0,0 l/m 0 min 0 min 0 W/m 16,1 km/h (3 Bft) 100,00 %
11.11.2018 21:32 11,4 C 9,4 C 9,4 C 92 % 1009,0 hPa 0,0 l/m 0 min 0 min 0 W/m 12,9 km/h (3 Bft) 100,00 %
11.11.2018 21:34 11,3 C 9,4 C 9,4 C 92 % 1009,0 hPa 0,0 l/m 0 min 0 min 0 W/m 12,9 km/h (3 Bft) 100,00 %
11.11.2018 21:36 11,3 C 10,0 C 9,4 C 92 % 1009,1 hPa 0,0 l/m 0 min 0 min 0 W/m 6,4 km/h (2 Bft) 100,00 %
11.11.2018 21:38 11,3 C 9,4 C 9,4 C 92 % 1009,1 hPa 0,0 l/m 0 min 0 min 0 W/m 12,9 km/h (3 Bft) 100,00 %
11.11.2018 21:40 11,3 C 10,0 C 9,4 C 92 % 1009,0 hPa 0,2 l/m 0 min 0 min 0 W/m 22,5 km/h (4 Bft) 100,00 %
11.11.2018 21:42 11,3 C 10,0 C 9,4 C 92 % 1009,0 hPa 0,0 l/m 0 min 0 min 0 W/m 9,7 km/h (2 Bft) 95,74 %
11.11.2018 21:44 11,3 C 10,0 C 9,4 C 92 % 1008,9 hPa 0,0 l/m 0 min 0 min 0 W/m 9,7 km/h (2 Bft) 100,00 %
11.11.2018 21:46 11,3 C 9,4 C 9,4 C 92 % 1008,9 hPa 0,0 l/m 0 min 0 min 0 W/m 12,9 km/h (3 Bft) 97,87 %
11.11.2018 21:48 11,3 C 10,0 C 9,4 C 92 % 1009,0 hPa 0,0 l/m 0 min 0 min 0 W/m 12,9 km/h (3 Bft) 97,87 %
11.11.2018 21:50 11,3 C 10,0 C 9,4 C 92 % 1009,1 hPa 0,0 l/m 0 min 0 min 0 W/m 16,1 km/h (3 Bft) 97,83 %
11.11.2018 21:52 11,3 C 10,0 C 9,4 C 92 % 1008,9 hPa 0,0 l/m 0 min 0 min 0 W/m 16,1 km/h (3 Bft) 97,87 %
11.11.2018 21:54 11,2 C 10,0 C 9,4 C 92 % 1008,9 hPa 0,0 l/m 0 min 0 min 0 W/m 22,5 km/h (4 Bft) 97,87 %
11.11.2018 21:56 11,2 C 10,0 C 9,4 C 92 % 1009,0 hPa 0,0 l/m 0 min 0 min 0 W/m 12,9 km/h (3 Bft) 97,87 %
11.11.2018 21:58 11,2 C 10,0 C 9,4 C 92 % 1009,1 hPa 0,0 l/m 0 min 0 min 0 W/m 16,1 km/h (3 Bft) 93,62 %
11.11.2018 22:00 11,2 C 10,0 C 9,4 C 92 % 1009,0 hPa 0,0 l/m 0 min 0 min 0 W/m 12,9 km/h (3 Bft) 95,83 %
11.11.2018 22:02 11,2 C 10,0 C 9,4 C 92 % 1009,0 hPa 0,0 l/m 0 min 0 min 0 W/m 12,9 km/h (3 Bft) 93,62 %
11.11.2018 22:04 11,2 C 10,0 C 9,4 C 92 % 1009,0 hPa 0,0 l/m 0 min 0 min 0 W/m 9,7 km/h (2 Bft) 97,87 %
11.11.2018 22:06 11,2 C 10,0 C 9,4 C 92 % 1009,0 hPa 0,0 l/m 0 min 0 min 0 W/m 9,7 km/h (2 Bft) 95,65 %
11.11.2018 22:08 11,2 C 10,0 C 9,4 C 92 % 1009,0 hPa 0,0 l/m 0 min 0 min 0 W/m 9,7 km/h (2 Bft) 95,74 %
11.11.2018 22:10 11,2 C 10,0 C 9,4 C 92 % 1009,1 hPa 0,0 l/m 0 min 0 min 0 W/m 9,7 km/h (2 Bft) 93,62 %
11.11.2018 22:12 11,2 C 10,0 C 9,4 C 92 % 1009,1 hPa 0,0 l/m 0 min 0 min 0 W/m 16,1 km/h (3 Bft) 95,74 %
11.11.2018 22:14 11,2 C 10,0 C 9,4 C 92 % 1009,1 hPa 0,0 l/m 0 min 0 min 0 W/m 9,7 km/h (2 Bft) 95,74 %
11.11.2018 22:16 11,2 C 10,0 C 9,4 C 92 % 1009,2 hPa 0,0 l/m 0 min 0 min 0 W/m 12,9 km/h (3 Bft) 95,65 %
11.11.2018 22:18 11,2 C 10,0 C 9,4 C 92 % 1009,3 hPa 0,0 l/m 0 min 0 min 0 W/m 9,7 km/h (2 Bft) 95,74 %
11.11.2018 22:20 11,2 C 10,0 C 9,4 C 92 % 1009,3 hPa 0,0 l/m 0 min 0 min 0 W/m 9,7 km/h (2 Bft) 93,62 %
11.11.2018 22:22 11,2 C 10,0 C 9,4 C 92 % 1009,2 hPa 0,0 l/m 0 min 0 min 0 W/m 9,7 km/h (2 Bft) 95,74 %
11.11.2018 22:24 11,2 C 10,0 C 9,4 C 92 % 1009,4 hPa 0,0 l/m 0 min 0 min 0 W/m 9,7 km/h (2 Bft) 95,74 %
11.11.2018 22:26 11,2 C 10,0 C 9,4 C 92 % 1009,3 hPa 0,0 l/m 0 min 0 min 0 W/m 12,9 km/h (3 Bft) 95,74 %
11.11.2018 22:28 11,2 C 10,0 C 9,4 C 92 % 1009,3 hPa 0,0 l/m 0 min 0 min 0 W/m 9,7 km/h (2 Bft) 95,74 %
11.11.2018 22:30 11,2 C 10,0 C 9,4 C 92 % 1009,3 hPa 0,0 l/m 0 min 0 min 0 W/m 9,7 km/h (2 Bft) 95,65 %
11.11.2018 22:32 11,2 C 10,0 C 9,4 C 92 % 1009,2 hPa 0,0 l/m 0 min 0 min 0 W/m 12,9 km/h (3 Bft) 95,74 %
11.11.2018 22:34 11,2 C 10,0 C 9,4 C 92 % 1009,2 hPa 0,0 l/m 0 min 0 min 0 W/m 6,4 km/h (2 Bft) 95,74 %
11.11.2018 22:36 11,2 C 10,0 C 9,4 C 92 % 1009,3 hPa 0,0 l/m 0 min 0 min 0 W/m 6,4 km/h (2 Bft) 95,74 %
11.11.2018 22:38 11,1 C 10,0 C 9,4 C 92 % 1009,4 hPa 0,0 l/m 0 min 0 min 0 W/m 9,7 km/h (2 Bft) 93,62 %
11.11.2018 22:40 11,2 C 10,0 C 9,4 C 92 % 1009,4 hPa 0,0 l/m 0 min 0 min 0 W/m 0,0 km/h (0 Bft) 95,65 %
11.11.2018 22:42 11,1 C 10,0 C 9,4 C 92 % 1009,5 hPa 0,0 l/m 0 min 0 min 0 W/m 3,2 km/h (1 Bft) 95,74 %
11.11.2018 22:44 11,2 C 10,0 C 9,4 C 92 % 1009,5 hPa 0,0 l/m 0 min 0 min 0 W/m 6,4 km/h (2 Bft) 95,74 %
11.11.2018 22:46 11,2 C 10,0 C 9,4 C 92 % 1009,4 hPa 0,0 l/m 0 min 0 min 0 W/m 6,4 km/h (2 Bft) 93,62 %
11.11.2018 22:48 11,1 C 10,0 C 9,4 C 92 % 1009,5 hPa 0,0 l/m 0 min 0 min 0 W/m 0,0 km/h (0 Bft) 97,87 %
11.11.2018 22:50 11,2 C 10,0 C 9,4 C 92 % 1009,5 hPa 0,0 l/m 0 min 0 min 0 W/m 9,7 km/h (2 Bft) 97,87 %
11.11.2018 22:52 11,1 C 10,0 C 9,4 C 92 % 1009,5 hPa 0,0 l/m 0 min 0 min 0 W/m 9,7 km/h (2 Bft) 97,83 %
11.11.2018 22:54 11,1 C 10,0 C 9,4 C 92 % 1009,4 hPa 0,0 l/m 0 min 0 min 0 W/m 6,4 km/h (2 Bft) 95,74 %
11.11.2018 22:56 11,1 C 10,0 C 9,4 C 92 % 1009,5 hPa 0,0 l/m 0 min 0 min 0 W/m 6,4 km/h (2 Bft) 100,00 %
11.11.2018 22:58 11,1 C 10,0 C 9,4 C 92 % 1009,6 hPa 0,0 l/m 0 min 0 min 0 W/m 9,7 km/h (2 Bft) 100,00 %
11.11.2018 23:00 11,1 C 10,0 C 9,4 C 92 % 1009,5 hPa 0,0 l/m 0 min 0 min 0 W/m 9,7 km/h (2 Bft) 100,00 %
11.11.2018 23:02 11,1 C 10,0 C 9,4 C 92 % 1009,6 hPa 0,0 l/m 0 min 0 min 0 W/m 9,7 km/h (2 Bft) 95,74 %
11.11.2018 23:04 11,1 C 10,0 C 9,4 C 92 % 1009,5 hPa 0,0 l/m 0 min 0 min 0 W/m 6,4 km/h (2 Bft) 95,65 %
11.11.2018 23:06 11,1 C 10,0 C 9,4 C 92 % 1009,5 hPa 0,0 l/m 0 min 0 min 0 W/m 6,4 km/h (2 Bft) 100,00 %
11.11.2018 23:08 11,1 C 10,0 C 9,4 C 92 % 1009,5 hPa 0,0 l/m 0 min 0 min 0 W/m 9,7 km/h (2 Bft) 100,00 %
11.11.2018 23:10 11,1 C 10,0 C 9,4 C 92 % 1009,6 hPa 0,0 l/m 0 min 0 min 0 W/m 9,7 km/h (2 Bft) 97,87 %
11.11.2018 23:12 11,1 C 10,0 C 9,4 C 92 % 1009,7 hPa 0,0 l/m 0 min 0 min 0 W/m 6,4 km/h (2 Bft) 100,00 %
11.11.2018 23:14 11,1 C 10,0 C 9,4 C 92 % 1009,7 hPa 0,0 l/m 0 min 0 min 0 W/m 9,7 km/h (2 Bft) 97,87 %
11.11.2018 23:16 11,1 C 10,0 C 9,4 C 92 % 1009,7 hPa 0,0 l/m 0 min 0 min 0 W/m 9,7 km/h (2 Bft) 100,00 %
11.11.2018 23:18 11,1 C 10,0 C 9,4 C 92 % 1009,8 hPa 0,0 l/m 0 min 0 min 0 W/m 9,7 km/h (2 Bft) 97,87 %
11.11.2018 23:20 11,1 C 10,0 C 9,4 C 92 % 1009,9 hPa 0,0 l/m 0 min 0 min 0 W/m 12,9 km/h (3 Bft) 97,87 %
11.11.2018 23:22 11,1 C 10,0 C 9,4 C 92 % 1009,9 hPa 0,0 l/m 0 min 0 min 0 W/m 12,9 km/h (3 Bft) 97,87 %
11.11.2018 23:24 11,1 C 10,0 C 9,4 C 92 % 1009,9 hPa 0,0 l/m 0 min 0 min 0 W/m 6,4 km/h (2 Bft) 95,74 %
11.11.2018 23:26 11,1 C 10,0 C 9,4 C 92 % 1010,1 hPa 0,0 l/m 0 min 0 min 0 W/m 9,7 km/h (2 Bft) 97,87 %
11.11.2018 23:28 11,1 C 10,0 C 9,4 C 92 % 1010,1 hPa 0,0 l/m 0 min 0 min 0 W/m 9,7 km/h (2 Bft) 97,83 %
11.11.2018 23:30 11,1 C 10,0 C 9,4 C 92 % 1010,1 hPa 0,0 l/m 0 min 0 min 0 W/m 16,1 km/h (3 Bft) 97,87 %
11.11.2018 23:32 11,1 C 10,0 C 9,4 C 92 % 1010,1 hPa 0,0 l/m 0 min 0 min 0 W/m 9,7 km/h (2 Bft) 97,87 %
11.11.2018 23:34 11,1 C 10,0 C 9,4 C 92 % 1010,1 hPa 0,0 l/m 0 min 0 min 0 W/m 9,7 km/h (2 Bft) 97,87 %
11.11.2018 23:36 11,1 C 10,0 C 9,4 C 92 % 1010,1 hPa 0,0 l/m 0 min 0 min 0 W/m 9,7 km/h (2 Bft) 97,87 %
11.11.2018 23:38 11,1 C 10,0 C 9,4 C 92 % 1010,1 hPa 0,0 l/m 0 min 0 min 0 W/m 6,4 km/h (2 Bft) 95,74 %
11.11.2018 23:40 11,1 C 10,0 C 9,4 C 92 % 1010,2 hPa 0,0 l/m 0 min 0 min 0 W/m 6,4 km/h (2 Bft) 95,65 %
11.11.2018 23:42 11,1 C 10,0 C 9,4 C 92 % 1010,2 hPa 0,0 l/m 0 min 0 min 0 W/m 9,7 km/h (2 Bft) 97,87 %
11.11.2018 23:44 11,1 C 10,0 C 9,4 C 92 % 1010,2 hPa 0,0 l/m 0 min 0 min 0 W/m 12,9 km/h (3 Bft) 95,74 %
11.11.2018 23:46 11,1 C 10,0 C 9,4 C 92 % 1010,3 hPa 0,0 l/m 0 min 0 min 0 W/m 12,9 km/h (3 Bft) 97,87 %
11.11.2018 23:48 11,0 C 10,0 C 9,4 C 92 % 1010,2 hPa 0,0 l/m 0 min 0 min 0 W/m 9,7 km/h (2 Bft) 97,87 %
11.11.2018 23:50 11,0 C 10,0 C 9,4 C 92 % 1010,2 hPa 0,0 l/m 0 min 0 min 0 W/m 6,4 km/h (2 Bft) 97,83 %
11.11.2018 23:52 11,0 C 10,0 C 9,4 C 92 % 1010,2 hPa 0,0 l/m 0 min 0 min 0 W/m 9,7 km/h (2 Bft) 95,74 %
11.11.2018 23:54 11,0 C 10,0 C 9,4 C 92 % 1010,2 hPa 0,0 l/m 0 min 0 min 0 W/m 12,9 km/h (3 Bft) 97,87 %
11.11.2018 23:56 11,0 C 10,0 C 9,4 C 92 % 1010,2 hPa 0,0 l/m 0 min 0 min 0 W/m 9,7 km/h (2 Bft) 97,87 %
11.11.2018 23:58 11,0 C 10,0 C 9,4 C 92 % 1010,1 hPa 0,0 l/m 0 min 0 min 0 W/m 9,7 km/h (2 Bft) 93,62 %
_ Min-Zeit 08:00 06:50 07:00 12:34 00:26 - - - - 22:40 08:40
Minimum _ 10,8 C 9,4 C 8,9 C 74 % 1001,5 hPa - - - - 0,0 km/h (0 Bft) 80,85 %
_ Max-Zeit 11:26 11:16 11:16 00:00 23:46 06:46 09:54 07:19 11:14 12:22 00:38
Maximum _ 15,1 C 19,4 C 13,9 C 95 % 1010,3 hPa 0,2 l/m 2 min 3 min 468 W/m 38,6 km/h
S-SO (5 Bft)
100,00 %
Durchschnitt _ 12,3 C 11,5 C 10,7 C 88 % 1004,7 hPa #1,8 l/m #1:24 h #5:22 h 92 W/m 16,2 km/h (3 Bft) 97,35 %
© 2018 W. Hausmann